<?xml version="1.0" encoding="UTF-8" standalone="no" ?>
<gpx xmlns="http://www.topografix.com/GPX/1/1" xmlns:xsi="http://www.w3.org/2001/XMLSchema-instance" xsi:schemaLocation="http://www.topografix.com/GPX/1/1 http://www.topografix.com/GPX/1/1/gpx.xsd" version="1.1" creator="VisuGPX - https://www.visugpx.com">
  <metadata>
    <name>juvignac oppidum bel-air grabels</name>
  </metadata>
  <trk>
    <name><![CDATA[juvignac oppidum bel-air grabels]]></name>
    <extensions>
      <line xmlns="http://www.topografix.com/GPX/gpx_style/0/2">
        <color>0000FF</color>
        <width>4</width>
      </line>
    </extensions>
    <trkseg>
      <trkpt lat="43.61167" lon="3.82765">
        <ele>55.5</ele>
        <time>2022-10-07T12:42:55Z</time>
      </trkpt>
      <trkpt lat="43.61202" lon="3.82557">
        <ele>53.9</ele>
        <time>2022-10-07T12:42:56.721Z</time>
      </trkpt>
      <trkpt lat="43.61261" lon="3.82513">
        <ele>51.5</ele>
        <time>2022-10-07T12:42:57.467Z</time>
      </trkpt>
      <trkpt lat="43.61307" lon="3.82442">
        <ele>50.8</ele>
        <time>2022-10-07T12:42:58.235Z</time>
      </trkpt>
      <trkpt lat="43.61306" lon="3.8232">
        <ele>49.6</ele>
        <time>2022-10-07T12:42:59.219Z</time>
      </trkpt>
      <trkpt lat="43.61513" lon="3.82208">
        <ele>44.2</ele>
        <time>2022-10-07T12:43:01.695Z</time>
      </trkpt>
      <trkpt lat="43.61553" lon="3.81802">
        <ele>36.8</ele>
        <time>2022-10-07T12:43:05Z</time>
      </trkpt>
      <trkpt lat="43.6154" lon="3.81752">
        <ele>36.3</ele>
        <time>2022-10-07T12:43:15Z</time>
      </trkpt>
      <trkpt lat="43.61525" lon="3.81698">
        <ele>32.9</ele>
        <time>2022-10-07T12:43:25Z</time>
      </trkpt>
      <trkpt lat="43.6151" lon="3.8164">
        <ele>37.3</ele>
        <time>2022-10-07T12:43:35Z</time>
      </trkpt>
      <trkpt lat="43.61496" lon="3.8158">
        <ele>38.2</ele>
        <time>2022-10-07T12:43:45Z</time>
      </trkpt>
      <trkpt lat="43.61489" lon="3.81529">
        <ele>39.6</ele>
        <time>2022-10-07T12:43:55Z</time>
      </trkpt>
      <trkpt lat="43.6147" lon="3.81517">
        <ele>40.5</ele>
        <time>2022-10-07T12:44:05Z</time>
      </trkpt>
      <trkpt lat="43.61461" lon="3.81483">
        <ele>42.2</ele>
        <time>2022-10-07T12:44:15Z</time>
      </trkpt>
      <trkpt lat="43.61449" lon="3.81442">
        <ele>41.9</ele>
        <time>2022-10-07T12:44:25Z</time>
      </trkpt>
      <trkpt lat="43.61434" lon="3.81397">
        <ele>43.6</ele>
        <time>2022-10-07T12:44:35Z</time>
      </trkpt>
      <trkpt lat="43.61422" lon="3.81348">
        <ele>43.9</ele>
        <time>2022-10-07T12:44:45Z</time>
      </trkpt>
      <trkpt lat="43.61411" lon="3.81293">
        <ele>45.2</ele>
        <time>2022-10-07T12:44:55Z</time>
      </trkpt>
      <trkpt lat="43.61406" lon="3.8124">
        <ele>46.8</ele>
        <time>2022-10-07T12:45:05Z</time>
      </trkpt>
      <trkpt lat="43.61405" lon="3.81188">
        <ele>47.7</ele>
        <time>2022-10-07T12:45:15Z</time>
      </trkpt>
      <trkpt lat="43.61405" lon="3.81139">
        <ele>49.2</ele>
        <time>2022-10-07T12:45:25Z</time>
      </trkpt>
      <trkpt lat="43.61405" lon="3.81091">
        <ele>49.6</ele>
        <time>2022-10-07T12:45:35Z</time>
      </trkpt>
      <trkpt lat="43.61409" lon="3.81056">
        <ele>50.7</ele>
        <time>2022-10-07T12:45:45Z</time>
      </trkpt>
      <trkpt lat="43.61397" lon="3.8101">
        <ele>51.5</ele>
        <time>2022-10-07T12:45:55Z</time>
      </trkpt>
      <trkpt lat="43.61391" lon="3.80965">
        <ele>52.4</ele>
        <time>2022-10-07T12:46:05Z</time>
      </trkpt>
      <trkpt lat="43.61384" lon="3.80911">
        <ele>54</ele>
        <time>2022-10-07T12:46:15Z</time>
      </trkpt>
      <trkpt lat="43.61378" lon="3.80858">
        <ele>54.7</ele>
        <time>2022-10-07T12:46:25Z</time>
      </trkpt>
      <trkpt lat="43.61376" lon="3.80804">
        <ele>54.1</ele>
        <time>2022-10-07T12:46:35Z</time>
      </trkpt>
      <trkpt lat="43.61379" lon="3.80746">
        <ele>54.3</ele>
        <time>2022-10-07T12:46:45Z</time>
      </trkpt>
      <trkpt lat="43.61385" lon="3.80686">
        <ele>54.7</ele>
        <time>2022-10-07T12:46:55Z</time>
      </trkpt>
      <trkpt lat="43.61392" lon="3.80629">
        <ele>55.5</ele>
        <time>2022-10-07T12:47:05Z</time>
      </trkpt>
      <trkpt lat="43.61395" lon="3.80571">
        <ele>56.6</ele>
        <time>2022-10-07T12:47:15Z</time>
      </trkpt>
      <trkpt lat="43.61396" lon="3.80519">
        <ele>57.8</ele>
        <time>2022-10-07T12:47:25Z</time>
      </trkpt>
      <trkpt lat="43.614" lon="3.80466">
        <ele>58.1</ele>
        <time>2022-10-07T12:47:35Z</time>
      </trkpt>
      <trkpt lat="43.61403" lon="3.80413">
        <ele>59.1</ele>
        <time>2022-10-07T12:47:45Z</time>
      </trkpt>
      <trkpt lat="43.61408" lon="3.80361">
        <ele>60.6</ele>
        <time>2022-10-07T12:47:55Z</time>
      </trkpt>
      <trkpt lat="43.61412" lon="3.8031">
        <ele>61</ele>
        <time>2022-10-07T12:48:05Z</time>
      </trkpt>
      <trkpt lat="43.61416" lon="3.8026">
        <ele>61.7</ele>
        <time>2022-10-07T12:48:15Z</time>
      </trkpt>
      <trkpt lat="43.61424" lon="3.80208">
        <ele>62.9</ele>
        <time>2022-10-07T12:48:25Z</time>
      </trkpt>
      <trkpt lat="43.61435" lon="3.80156">
        <ele>64</ele>
        <time>2022-10-07T12:48:35Z</time>
      </trkpt>
      <trkpt lat="43.61446" lon="3.80105">
        <ele>65</ele>
        <time>2022-10-07T12:48:45Z</time>
      </trkpt>
      <trkpt lat="43.61462" lon="3.80063">
        <ele>65.9</ele>
        <time>2022-10-07T12:48:55Z</time>
      </trkpt>
      <trkpt lat="43.61455" lon="3.80032">
        <ele>66.3</ele>
        <time>2022-10-07T12:49:05Z</time>
      </trkpt>
      <trkpt lat="43.61434" lon="3.79995">
        <ele>65.1</ele>
        <time>2022-10-07T12:49:15Z</time>
      </trkpt>
      <trkpt lat="43.61395" lon="3.7992">
        <ele>63.5</ele>
        <time>2022-10-07T12:49:25Z</time>
      </trkpt>
      <trkpt lat="43.61386" lon="3.7986">
        <ele>62.2</ele>
        <time>2022-10-07T12:49:35Z</time>
      </trkpt>
      <trkpt lat="43.61399" lon="3.79798">
        <ele>60.5</ele>
        <time>2022-10-07T12:49:45Z</time>
      </trkpt>
      <trkpt lat="43.61416" lon="3.79737">
        <ele>57.6</ele>
        <time>2022-10-07T12:49:55Z</time>
      </trkpt>
      <trkpt lat="43.61435" lon="3.7967">
        <ele>55.9</ele>
        <time>2022-10-07T12:50:05Z</time>
      </trkpt>
      <trkpt lat="43.61449" lon="3.79596">
        <ele>53.2</ele>
        <time>2022-10-07T12:50:15Z</time>
      </trkpt>
      <trkpt lat="43.61454" lon="3.79519">
        <ele>52.3</ele>
        <time>2022-10-07T12:50:25Z</time>
      </trkpt>
      <trkpt lat="43.61461" lon="3.7945">
        <ele>52.3</ele>
        <time>2022-10-07T12:50:35Z</time>
      </trkpt>
      <trkpt lat="43.61472" lon="3.79386">
        <ele>52</ele>
        <time>2022-10-07T12:50:45Z</time>
      </trkpt>
      <trkpt lat="43.61493" lon="3.79324">
        <ele>53.8</ele>
        <time>2022-10-07T12:50:55Z</time>
      </trkpt>
      <trkpt lat="43.61511" lon="3.79262">
        <ele>54.3</ele>
        <time>2022-10-07T12:51:05Z</time>
      </trkpt>
      <trkpt lat="43.61528" lon="3.792">
        <ele>54.4</ele>
        <time>2022-10-07T12:51:15Z</time>
      </trkpt>
      <trkpt lat="43.61543" lon="3.79149">
        <ele>56.2</ele>
        <time>2022-10-07T12:51:25Z</time>
      </trkpt>
      <trkpt lat="43.61551" lon="3.79101">
        <ele>55.9</ele>
        <time>2022-10-07T12:51:35Z</time>
      </trkpt>
      <trkpt lat="43.6156" lon="3.79057">
        <ele>57.6</ele>
        <time>2022-10-07T12:51:45Z</time>
      </trkpt>
      <trkpt lat="43.61565" lon="3.79011">
        <ele>58.8</ele>
        <time>2022-10-07T12:51:55Z</time>
      </trkpt>
      <trkpt lat="43.61564" lon="3.78966">
        <ele>58.8</ele>
        <time>2022-10-07T12:52:05Z</time>
      </trkpt>
      <trkpt lat="43.61558" lon="3.78925">
        <ele>57.2</ele>
        <time>2022-10-07T12:52:15Z</time>
      </trkpt>
      <trkpt lat="43.61551" lon="3.78889">
        <ele>58</ele>
        <time>2022-10-07T12:52:25Z</time>
      </trkpt>
      <trkpt lat="43.61547" lon="3.78847">
        <ele>60.1</ele>
        <time>2022-10-07T12:52:35Z</time>
      </trkpt>
      <trkpt lat="43.61552" lon="3.78804">
        <ele>59.7</ele>
        <time>2022-10-07T12:52:45Z</time>
      </trkpt>
      <trkpt lat="43.6157" lon="3.78767">
        <ele>59.8</ele>
        <time>2022-10-07T12:52:55Z</time>
      </trkpt>
      <trkpt lat="43.61584" lon="3.7874">
        <ele>60.8</ele>
        <time>2022-10-07T12:53:05Z</time>
      </trkpt>
      <trkpt lat="43.616" lon="3.78716">
        <ele>63.4</ele>
        <time>2022-10-07T12:53:15Z</time>
      </trkpt>
      <trkpt lat="43.61615" lon="3.78691">
        <ele>64.4</ele>
        <time>2022-10-07T12:53:25Z</time>
      </trkpt>
      <trkpt lat="43.61629" lon="3.78666">
        <ele>67.2</ele>
        <time>2022-10-07T12:53:35Z</time>
      </trkpt>
      <trkpt lat="43.61646" lon="3.78648">
        <ele>68.2</ele>
        <time>2022-10-07T12:53:45Z</time>
      </trkpt>
      <trkpt lat="43.61661" lon="3.78628">
        <ele>69.6</ele>
        <time>2022-10-07T12:53:55Z</time>
      </trkpt>
      <trkpt lat="43.61671" lon="3.7861">
        <ele>71</ele>
        <time>2022-10-07T12:54:05Z</time>
      </trkpt>
      <trkpt lat="43.6168" lon="3.78591">
        <ele>73.1</ele>
        <time>2022-10-07T12:54:15Z</time>
      </trkpt>
      <trkpt lat="43.61691" lon="3.78571">
        <ele>74.5</ele>
        <time>2022-10-07T12:54:25Z</time>
      </trkpt>
      <trkpt lat="43.61701" lon="3.7855">
        <ele>76.4</ele>
        <time>2022-10-07T12:54:35Z</time>
      </trkpt>
      <trkpt lat="43.61711" lon="3.78532">
        <ele>77.7</ele>
        <time>2022-10-07T12:54:45Z</time>
      </trkpt>
      <trkpt lat="43.61717" lon="3.78511">
        <ele>79.3</ele>
        <time>2022-10-07T12:54:55Z</time>
      </trkpt>
      <trkpt lat="43.61724" lon="3.78491">
        <ele>80.2</ele>
        <time>2022-10-07T12:55:05Z</time>
      </trkpt>
      <trkpt lat="43.61728" lon="3.78467">
        <ele>80.7</ele>
        <time>2022-10-07T12:55:15Z</time>
      </trkpt>
      <trkpt lat="43.61729" lon="3.78436">
        <ele>81.1</ele>
        <time>2022-10-07T12:55:25Z</time>
      </trkpt>
      <trkpt lat="43.61724" lon="3.78398">
        <ele>80.4</ele>
        <time>2022-10-07T12:55:35Z</time>
      </trkpt>
      <trkpt lat="43.61716" lon="3.78342">
        <ele>79.6</ele>
        <time>2022-10-07T12:55:45Z</time>
      </trkpt>
      <trkpt lat="43.61721" lon="3.78294">
        <ele>80.5</ele>
        <time>2022-10-07T12:55:55Z</time>
      </trkpt>
      <trkpt lat="43.61729" lon="3.78251">
        <ele>82.2</ele>
        <time>2022-10-07T12:56:05Z</time>
      </trkpt>
      <trkpt lat="43.6174" lon="3.78206">
        <ele>82.8</ele>
        <time>2022-10-07T12:56:15Z</time>
      </trkpt>
      <trkpt lat="43.61751" lon="3.7816">
        <ele>84.1</ele>
        <time>2022-10-07T12:56:25Z</time>
      </trkpt>
      <trkpt lat="43.61765" lon="3.78114">
        <ele>84.6</ele>
        <time>2022-10-07T12:56:35Z</time>
      </trkpt>
      <trkpt lat="43.61788" lon="3.78076">
        <ele>85.4</ele>
        <time>2022-10-07T12:56:45Z</time>
      </trkpt>
      <trkpt lat="43.61818" lon="3.7804">
        <ele>85.2</ele>
        <time>2022-10-07T12:56:55Z</time>
      </trkpt>
      <trkpt lat="43.61833" lon="3.77991">
        <ele>87.3</ele>
        <time>2022-10-07T12:57:05Z</time>
      </trkpt>
      <trkpt lat="43.61839" lon="3.77941">
        <ele>89.9</ele>
        <time>2022-10-07T12:57:15Z</time>
      </trkpt>
      <trkpt lat="43.61839" lon="3.77894">
        <ele>90.8</ele>
        <time>2022-10-07T12:57:25Z</time>
      </trkpt>
      <trkpt lat="43.61825" lon="3.77865">
        <ele>91.9</ele>
        <time>2022-10-07T12:57:35Z</time>
      </trkpt>
      <trkpt lat="43.618" lon="3.77864">
        <ele>94.1</ele>
        <time>2022-10-07T12:57:45Z</time>
      </trkpt>
      <trkpt lat="43.61792" lon="3.77836">
        <ele>96.3</ele>
        <time>2022-10-07T12:57:55Z</time>
      </trkpt>
      <trkpt lat="43.618" lon="3.77805">
        <ele>95.8</ele>
        <time>2022-10-07T12:58:05Z</time>
      </trkpt>
      <trkpt lat="43.61807" lon="3.77771">
        <ele>96.1</ele>
        <time>2022-10-07T12:58:15Z</time>
      </trkpt>
      <trkpt lat="43.61816" lon="3.77733">
        <ele>96.5</ele>
        <time>2022-10-07T12:58:25Z</time>
      </trkpt>
      <trkpt lat="43.61828" lon="3.77694">
        <ele>97.4</ele>
        <time>2022-10-07T12:58:35Z</time>
      </trkpt>
      <trkpt lat="43.61837" lon="3.77657">
        <ele>97.6</ele>
        <time>2022-10-07T12:58:45Z</time>
      </trkpt>
      <trkpt lat="43.6185" lon="3.77622">
        <ele>97.7</ele>
        <time>2022-10-07T12:58:55Z</time>
      </trkpt>
      <trkpt lat="43.61858" lon="3.77585">
        <ele>99.1</ele>
        <time>2022-10-07T12:59:05Z</time>
      </trkpt>
      <trkpt lat="43.61869" lon="3.77548">
        <ele>100.1</ele>
        <time>2022-10-07T12:59:15Z</time>
      </trkpt>
      <trkpt lat="43.61881" lon="3.77509">
        <ele>100.3</ele>
        <time>2022-10-07T12:59:25Z</time>
      </trkpt>
      <trkpt lat="43.61893" lon="3.77469">
        <ele>101.7</ele>
        <time>2022-10-07T12:59:35Z</time>
      </trkpt>
      <trkpt lat="43.61902" lon="3.77435">
        <ele>102.3</ele>
        <time>2022-10-07T12:59:45Z</time>
      </trkpt>
      <trkpt lat="43.61916" lon="3.774">
        <ele>103.3</ele>
        <time>2022-10-07T12:59:55Z</time>
      </trkpt>
      <trkpt lat="43.61933" lon="3.77363">
        <ele>105.1</ele>
        <time>2022-10-07T13:00:05Z</time>
      </trkpt>
      <trkpt lat="43.6195" lon="3.7732">
        <ele>105.4</ele>
        <time>2022-10-07T13:00:15Z</time>
      </trkpt>
      <trkpt lat="43.61968" lon="3.77276">
        <ele>106.7</ele>
        <time>2022-10-07T13:00:25Z</time>
      </trkpt>
      <trkpt lat="43.61985" lon="3.77233">
        <ele>106.1</ele>
        <time>2022-10-07T13:00:35Z</time>
      </trkpt>
      <trkpt lat="43.62002" lon="3.77191">
        <ele>105.5</ele>
        <time>2022-10-07T13:00:45Z</time>
      </trkpt>
      <trkpt lat="43.6202" lon="3.77149">
        <ele>104.4</ele>
        <time>2022-10-07T13:00:55Z</time>
      </trkpt>
      <trkpt lat="43.62038" lon="3.77104">
        <ele>103.3</ele>
        <time>2022-10-07T13:01:05Z</time>
      </trkpt>
      <trkpt lat="43.62056" lon="3.77061">
        <ele>108.2</ele>
        <time>2022-10-07T13:01:15Z</time>
      </trkpt>
      <trkpt lat="43.62074" lon="3.77019">
        <ele>110.9</ele>
        <time>2022-10-07T13:01:25Z</time>
      </trkpt>
      <trkpt lat="43.62091" lon="3.76976">
        <ele>113.1</ele>
        <time>2022-10-07T13:01:35Z</time>
      </trkpt>
      <trkpt lat="43.62108" lon="3.76934">
        <ele>113.9</ele>
        <time>2022-10-07T13:01:45Z</time>
      </trkpt>
      <trkpt lat="43.62123" lon="3.76894">
        <ele>113.9</ele>
        <time>2022-10-07T13:01:55Z</time>
      </trkpt>
      <trkpt lat="43.62137" lon="3.76852">
        <ele>114.6</ele>
        <time>2022-10-07T13:02:05Z</time>
      </trkpt>
      <trkpt lat="43.6215" lon="3.76809">
        <ele>116.3</ele>
        <time>2022-10-07T13:02:15Z</time>
      </trkpt>
      <trkpt lat="43.62163" lon="3.76763">
        <ele>115.1</ele>
        <time>2022-10-07T13:02:25Z</time>
      </trkpt>
      <trkpt lat="43.62176" lon="3.76716">
        <ele>116.1</ele>
        <time>2022-10-07T13:02:35Z</time>
      </trkpt>
      <trkpt lat="43.62188" lon="3.76673">
        <ele>117.7</ele>
        <time>2022-10-07T13:02:45Z</time>
      </trkpt>
      <trkpt lat="43.62201" lon="3.76629">
        <ele>117.7</ele>
        <time>2022-10-07T13:02:55Z</time>
      </trkpt>
      <trkpt lat="43.62214" lon="3.76584">
        <ele>118.4</ele>
        <time>2022-10-07T13:03:05Z</time>
      </trkpt>
      <trkpt lat="43.62225" lon="3.7654">
        <ele>119.2</ele>
        <time>2022-10-07T13:03:15Z</time>
      </trkpt>
      <trkpt lat="43.62235" lon="3.76505">
        <ele>118.6</ele>
        <time>2022-10-07T13:03:25Z</time>
      </trkpt>
      <trkpt lat="43.62246" lon="3.76457">
        <ele>119.4</ele>
        <time>2022-10-07T13:03:35Z</time>
      </trkpt>
      <trkpt lat="43.62254" lon="3.76408">
        <ele>120.6</ele>
        <time>2022-10-07T13:03:45Z</time>
      </trkpt>
      <trkpt lat="43.62261" lon="3.76358">
        <ele>121.1</ele>
        <time>2022-10-07T13:03:55Z</time>
      </trkpt>
      <trkpt lat="43.62267" lon="3.76307">
        <ele>121.5</ele>
        <time>2022-10-07T13:04:05Z</time>
      </trkpt>
      <trkpt lat="43.62273" lon="3.76258">
        <ele>123.1</ele>
        <time>2022-10-07T13:04:15Z</time>
      </trkpt>
      <trkpt lat="43.62275" lon="3.76215">
        <ele>124</ele>
        <time>2022-10-07T13:04:25Z</time>
      </trkpt>
      <trkpt lat="43.62278" lon="3.76189">
        <ele>124</ele>
        <time>2022-10-07T13:04:35Z</time>
      </trkpt>
      <trkpt lat="43.62275" lon="3.76203">
        <ele>123.9</ele>
        <time>2022-10-07T13:04:45Z</time>
      </trkpt>
      <trkpt lat="43.62253" lon="3.76211">
        <ele>123.6</ele>
        <time>2022-10-07T13:04:55Z</time>
      </trkpt>
      <trkpt lat="43.6223" lon="3.76213">
        <ele>124.9</ele>
        <time>2022-10-07T13:05:05Z</time>
      </trkpt>
      <trkpt lat="43.62214" lon="3.76215">
        <ele>126.6</ele>
        <time>2022-10-07T13:05:15Z</time>
      </trkpt>
      <trkpt lat="43.622" lon="3.76211">
        <ele>128.1</ele>
        <time>2022-10-07T13:05:25Z</time>
      </trkpt>
      <trkpt lat="43.6219" lon="3.7621">
        <ele>129.4</ele>
        <time>2022-10-07T13:05:35Z</time>
      </trkpt>
      <trkpt lat="43.62187" lon="3.76223">
        <ele>131.1</ele>
        <time>2022-10-07T13:05:45Z</time>
      </trkpt>
      <trkpt lat="43.62185" lon="3.76239">
        <ele>132.2</ele>
        <time>2022-10-07T13:05:55Z</time>
      </trkpt>
      <trkpt lat="43.62174" lon="3.7625">
        <ele>134.7</ele>
        <time>2022-10-07T13:06:05Z</time>
      </trkpt>
      <trkpt lat="43.62162" lon="3.76258">
        <ele>137.2</ele>
        <time>2022-10-07T13:06:15Z</time>
      </trkpt>
      <trkpt lat="43.62153" lon="3.76266">
        <ele>139.3</ele>
        <time>2022-10-07T13:06:25Z</time>
      </trkpt>
      <trkpt lat="43.62142" lon="3.76276">
        <ele>142.2</ele>
        <time>2022-10-07T13:06:35Z</time>
      </trkpt>
      <trkpt lat="43.6213" lon="3.76277">
        <ele>144.9</ele>
        <time>2022-10-07T13:06:45Z</time>
      </trkpt>
      <trkpt lat="43.62121" lon="3.76278">
        <ele>146.9</ele>
        <time>2022-10-07T13:06:55Z</time>
      </trkpt>
      <trkpt lat="43.6211" lon="3.76284">
        <ele>149.7</ele>
        <time>2022-10-07T13:07:05Z</time>
      </trkpt>
      <trkpt lat="43.621" lon="3.76286">
        <ele>152</ele>
        <time>2022-10-07T13:08:05Z</time>
      </trkpt>
      <trkpt lat="43.62087" lon="3.76291">
        <ele>155.2</ele>
        <time>2022-10-07T13:08:45Z</time>
      </trkpt>
      <trkpt lat="43.62074" lon="3.76299">
        <ele>156.6</ele>
        <time>2022-10-07T13:09:05Z</time>
      </trkpt>
      <trkpt lat="43.62064" lon="3.76287">
        <ele>156.1</ele>
        <time>2022-10-07T13:09:15Z</time>
      </trkpt>
      <trkpt lat="43.62046" lon="3.76264">
        <ele>154.1</ele>
        <time>2022-10-07T13:09:25Z</time>
      </trkpt>
      <trkpt lat="43.62025" lon="3.76235">
        <ele>148.1</ele>
        <time>2022-10-07T13:09:35Z</time>
      </trkpt>
      <trkpt lat="43.62003" lon="3.76218">
        <ele>140.6</ele>
        <time>2022-10-07T13:09:45Z</time>
      </trkpt>
      <trkpt lat="43.6198" lon="3.76222">
        <ele>133.5</ele>
        <time>2022-10-07T13:09:55Z</time>
      </trkpt>
      <trkpt lat="43.61967" lon="3.76218">
        <ele>128.9</ele>
        <time>2022-10-07T13:10:05Z</time>
      </trkpt>
      <trkpt lat="43.6195" lon="3.76182">
        <ele>119.3</ele>
        <time>2022-10-07T13:10:35Z</time>
      </trkpt>
      <trkpt lat="43.61933" lon="3.76177">
        <ele>114.7</ele>
        <time>2022-10-07T13:10:55Z</time>
      </trkpt>
      <trkpt lat="43.61923" lon="3.76141">
        <ele>108.5</ele>
        <time>2022-10-07T13:11:05Z</time>
      </trkpt>
      <trkpt lat="43.61902" lon="3.76097">
        <ele>103.2</ele>
        <time>2022-10-07T13:11:15Z</time>
      </trkpt>
      <trkpt lat="43.6188" lon="3.76058">
        <ele>96.5</ele>
        <time>2022-10-07T13:11:25Z</time>
      </trkpt>
      <trkpt lat="43.61861" lon="3.76019">
        <ele>87.4</ele>
        <time>2022-10-07T13:11:35Z</time>
      </trkpt>
      <trkpt lat="43.61881" lon="3.75983">
        <ele>86</ele>
        <time>2022-10-07T13:11:45Z</time>
      </trkpt>
      <trkpt lat="43.61904" lon="3.75958">
        <ele>87.4</ele>
        <time>2022-10-07T13:11:55Z</time>
      </trkpt>
      <trkpt lat="43.61927" lon="3.75931">
        <ele>86.9</ele>
        <time>2022-10-07T13:12:05Z</time>
      </trkpt>
      <trkpt lat="43.61953" lon="3.75901">
        <ele>84.4</ele>
        <time>2022-10-07T13:12:15Z</time>
      </trkpt>
      <trkpt lat="43.61966" lon="3.75888">
        <ele>81.2</ele>
        <time>2022-10-07T13:12:25Z</time>
      </trkpt>
      <trkpt lat="43.6198" lon="3.75891">
        <ele>81.3</ele>
        <time>2022-10-07T13:12:35Z</time>
      </trkpt>
      <trkpt lat="43.61997" lon="3.75903">
        <ele>82.4</ele>
        <time>2022-10-07T13:12:55Z</time>
      </trkpt>
      <trkpt lat="43.62006" lon="3.75905">
        <ele>82.2</ele>
        <time>2022-10-07T13:13:05Z</time>
      </trkpt>
      <trkpt lat="43.62011" lon="3.75903">
        <ele>82</ele>
        <time>2022-10-07T13:13:15Z</time>
      </trkpt>
      <trkpt lat="43.62021" lon="3.75904">
        <ele>82</ele>
        <time>2022-10-07T13:13:25Z</time>
      </trkpt>
      <trkpt lat="43.62043" lon="3.759">
        <ele>82.3</ele>
        <time>2022-10-07T13:13:45Z</time>
      </trkpt>
      <trkpt lat="43.62061" lon="3.75889">
        <ele>81.4</ele>
        <time>2022-10-07T13:13:55Z</time>
      </trkpt>
      <trkpt lat="43.62081" lon="3.75876">
        <ele>82.5</ele>
        <time>2022-10-07T13:14:05Z</time>
      </trkpt>
      <trkpt lat="43.62102" lon="3.75855">
        <ele>83.5</ele>
        <time>2022-10-07T13:14:15Z</time>
      </trkpt>
      <trkpt lat="43.62124" lon="3.75835">
        <ele>84.1</ele>
        <time>2022-10-07T13:14:25Z</time>
      </trkpt>
      <trkpt lat="43.62147" lon="3.75815">
        <ele>84.2</ele>
        <time>2022-10-07T13:14:35Z</time>
      </trkpt>
      <trkpt lat="43.62156" lon="3.75788">
        <ele>86.1</ele>
        <time>2022-10-07T13:14:45Z</time>
      </trkpt>
      <trkpt lat="43.62171" lon="3.75766">
        <ele>86.3</ele>
        <time>2022-10-07T13:14:55Z</time>
      </trkpt>
      <trkpt lat="43.62173" lon="3.75732">
        <ele>87.4</ele>
        <time>2022-10-07T13:15:05Z</time>
      </trkpt>
      <trkpt lat="43.62163" lon="3.75706">
        <ele>88.5</ele>
        <time>2022-10-07T13:15:15Z</time>
      </trkpt>
      <trkpt lat="43.62145" lon="3.75686">
        <ele>88.9</ele>
        <time>2022-10-07T13:15:25Z</time>
      </trkpt>
      <trkpt lat="43.62136" lon="3.75673">
        <ele>86</ele>
        <time>2022-10-07T13:15:35Z</time>
      </trkpt>
      <trkpt lat="43.62129" lon="3.75661">
        <ele>85.6</ele>
        <time>2022-10-07T13:15:45Z</time>
      </trkpt>
      <trkpt lat="43.62119" lon="3.7565">
        <ele>87.5</ele>
        <time>2022-10-07T13:16:05Z</time>
      </trkpt>
      <trkpt lat="43.62114" lon="3.75636">
        <ele>89.3</ele>
        <time>2022-10-07T13:16:25Z</time>
      </trkpt>
      <trkpt lat="43.62108" lon="3.75628">
        <ele>91</ele>
        <time>2022-10-07T13:16:35Z</time>
      </trkpt>
      <trkpt lat="43.62095" lon="3.75621">
        <ele>92.4</ele>
        <time>2022-10-07T13:16:45Z</time>
      </trkpt>
      <trkpt lat="43.62085" lon="3.756">
        <ele>95.6</ele>
        <time>2022-10-07T13:16:55Z</time>
      </trkpt>
      <trkpt lat="43.62079" lon="3.75582">
        <ele>97.8</ele>
        <time>2022-10-07T13:17:05Z</time>
      </trkpt>
      <trkpt lat="43.6207" lon="3.7557">
        <ele>97.8</ele>
        <time>2022-10-07T13:17:15Z</time>
      </trkpt>
      <trkpt lat="43.62065" lon="3.75554">
        <ele>98.1</ele>
        <time>2022-10-07T13:17:25Z</time>
      </trkpt>
      <trkpt lat="43.62056" lon="3.75532">
        <ele>97.1</ele>
        <time>2022-10-07T13:17:35Z</time>
      </trkpt>
      <trkpt lat="43.62051" lon="3.75521">
        <ele>97.3</ele>
        <time>2022-10-07T13:17:45Z</time>
      </trkpt>
      <trkpt lat="43.6204" lon="3.75513">
        <ele>98.1</ele>
        <time>2022-10-07T13:17:55Z</time>
      </trkpt>
      <trkpt lat="43.62026" lon="3.75514">
        <ele>98.6</ele>
        <time>2022-10-07T13:18:15Z</time>
      </trkpt>
      <trkpt lat="43.62018" lon="3.75516">
        <ele>99.1</ele>
        <time>2022-10-07T13:18:35Z</time>
      </trkpt>
      <trkpt lat="43.62" lon="3.75515">
        <ele>100.8</ele>
        <time>2022-10-07T13:18:55Z</time>
      </trkpt>
      <trkpt lat="43.61982" lon="3.75536">
        <ele>96.3</ele>
        <time>2022-10-07T13:19:15Z</time>
      </trkpt>
      <trkpt lat="43.61971" lon="3.7554">
        <ele>94.9</ele>
        <time>2022-10-07T13:19:25Z</time>
      </trkpt>
      <trkpt lat="43.61969" lon="3.75556">
        <ele>91.1</ele>
        <time>2022-10-07T13:19:35Z</time>
      </trkpt>
      <trkpt lat="43.61945" lon="3.7557">
        <ele>90.4</ele>
        <time>2022-10-07T13:19:45Z</time>
      </trkpt>
      <trkpt lat="43.61918" lon="3.75599">
        <ele>90</ele>
        <time>2022-10-07T13:19:55Z</time>
      </trkpt>
      <trkpt lat="43.61891" lon="3.75608">
        <ele>90</ele>
        <time>2022-10-07T13:20:05Z</time>
      </trkpt>
      <trkpt lat="43.61863" lon="3.75604">
        <ele>90.3</ele>
        <time>2022-10-07T13:20:15Z</time>
      </trkpt>
      <trkpt lat="43.61841" lon="3.75588">
        <ele>91.1</ele>
        <time>2022-10-07T13:20:25Z</time>
      </trkpt>
      <trkpt lat="43.61828" lon="3.75557">
        <ele>91.8</ele>
        <time>2022-10-07T13:20:35Z</time>
      </trkpt>
      <trkpt lat="43.61809" lon="3.75527">
        <ele>91.3</ele>
        <time>2022-10-07T13:20:45Z</time>
      </trkpt>
      <trkpt lat="43.61789" lon="3.75499">
        <ele>91.9</ele>
        <time>2022-10-07T13:20:55Z</time>
      </trkpt>
      <trkpt lat="43.61768" lon="3.75468">
        <ele>93.3</ele>
        <time>2022-10-07T13:21:05Z</time>
      </trkpt>
      <trkpt lat="43.61748" lon="3.75439">
        <ele>92.8</ele>
        <time>2022-10-07T13:21:15Z</time>
      </trkpt>
      <trkpt lat="43.61728" lon="3.75411">
        <ele>93.1</ele>
        <time>2022-10-07T13:21:25Z</time>
      </trkpt>
      <trkpt lat="43.61707" lon="3.75382">
        <ele>93.7</ele>
        <time>2022-10-07T13:21:35Z</time>
      </trkpt>
      <trkpt lat="43.61699" lon="3.75346">
        <ele>94.1</ele>
        <time>2022-10-07T13:21:45Z</time>
      </trkpt>
      <trkpt lat="43.61681" lon="3.75311">
        <ele>94.1</ele>
        <time>2022-10-07T13:21:55Z</time>
      </trkpt>
      <trkpt lat="43.61664" lon="3.7528">
        <ele>95.3</ele>
        <time>2022-10-07T13:22:05Z</time>
      </trkpt>
      <trkpt lat="43.61667" lon="3.75235">
        <ele>94</ele>
        <time>2022-10-07T13:22:15Z</time>
      </trkpt>
      <trkpt lat="43.61677" lon="3.75208">
        <ele>94.8</ele>
        <time>2022-10-07T13:22:25Z</time>
      </trkpt>
      <trkpt lat="43.61696" lon="3.75186">
        <ele>94.6</ele>
        <time>2022-10-07T13:22:35Z</time>
      </trkpt>
      <trkpt lat="43.61701" lon="3.75155">
        <ele>96.3</ele>
        <time>2022-10-07T13:22:45Z</time>
      </trkpt>
      <trkpt lat="43.61715" lon="3.75136">
        <ele>97.2</ele>
        <time>2022-10-07T13:22:55Z</time>
      </trkpt>
      <trkpt lat="43.61734" lon="3.75112">
        <ele>98.1</ele>
        <time>2022-10-07T13:23:05Z</time>
      </trkpt>
      <trkpt lat="43.61756" lon="3.75085">
        <ele>97.7</ele>
        <time>2022-10-07T13:23:15Z</time>
      </trkpt>
      <trkpt lat="43.61781" lon="3.75066">
        <ele>98.1</ele>
        <time>2022-10-07T13:23:25Z</time>
      </trkpt>
      <trkpt lat="43.618" lon="3.75031">
        <ele>98.6</ele>
        <time>2022-10-07T13:23:35Z</time>
      </trkpt>
      <trkpt lat="43.61796" lon="3.74987">
        <ele>100.2</ele>
        <time>2022-10-07T13:23:45Z</time>
      </trkpt>
      <trkpt lat="43.61782" lon="3.74952">
        <ele>101.2</ele>
        <time>2022-10-07T13:23:55Z</time>
      </trkpt>
      <trkpt lat="43.6176" lon="3.74929">
        <ele>101.7</ele>
        <time>2022-10-07T13:24:05Z</time>
      </trkpt>
      <trkpt lat="43.61739" lon="3.74907">
        <ele>100.4</ele>
        <time>2022-10-07T13:24:15Z</time>
      </trkpt>
      <trkpt lat="43.61715" lon="3.7489">
        <ele>101.5</ele>
        <time>2022-10-07T13:24:25Z</time>
      </trkpt>
      <trkpt lat="43.61703" lon="3.74858">
        <ele>101.4</ele>
        <time>2022-10-07T13:24:35Z</time>
      </trkpt>
      <trkpt lat="43.61695" lon="3.7481">
        <ele>102</ele>
        <time>2022-10-07T13:24:45Z</time>
      </trkpt>
      <trkpt lat="43.61677" lon="3.74767">
        <ele>103.5</ele>
        <time>2022-10-07T13:24:55Z</time>
      </trkpt>
      <trkpt lat="43.61664" lon="3.7473">
        <ele>104.1</ele>
        <time>2022-10-07T13:25:05Z</time>
      </trkpt>
      <trkpt lat="43.61652" lon="3.74696">
        <ele>106.2</ele>
        <time>2022-10-07T13:25:15Z</time>
      </trkpt>
      <trkpt lat="43.61636" lon="3.7467">
        <ele>106.7</ele>
        <time>2022-10-07T13:25:25Z</time>
      </trkpt>
      <trkpt lat="43.61618" lon="3.74632">
        <ele>107.4</ele>
        <time>2022-10-07T13:25:35Z</time>
      </trkpt>
      <trkpt lat="43.61602" lon="3.74597">
        <ele>108.4</ele>
        <time>2022-10-07T13:25:45Z</time>
      </trkpt>
      <trkpt lat="43.61594" lon="3.74567">
        <ele>108.2</ele>
        <time>2022-10-07T13:25:55Z</time>
      </trkpt>
      <trkpt lat="43.61618" lon="3.74546">
        <ele>104.6</ele>
        <time>2022-10-07T13:26:05Z</time>
      </trkpt>
      <trkpt lat="43.61641" lon="3.74552">
        <ele>104.6</ele>
        <time>2022-10-07T13:26:15Z</time>
      </trkpt>
      <trkpt lat="43.61658" lon="3.74561">
        <ele>107.5</ele>
        <time>2022-10-07T13:26:25Z</time>
      </trkpt>
      <trkpt lat="43.61669" lon="3.74575">
        <ele>107.2</ele>
        <time>2022-10-07T13:26:35Z</time>
      </trkpt>
      <trkpt lat="43.61684" lon="3.74589">
        <ele>109.2</ele>
        <time>2022-10-07T13:26:45Z</time>
      </trkpt>
      <trkpt lat="43.617" lon="3.74601">
        <ele>111.1</ele>
        <time>2022-10-07T13:26:55Z</time>
      </trkpt>
      <trkpt lat="43.61715" lon="3.74617">
        <ele>111.4</ele>
        <time>2022-10-07T13:27:05Z</time>
      </trkpt>
      <trkpt lat="43.61736" lon="3.74633">
        <ele>112</ele>
        <time>2022-10-07T13:27:15Z</time>
      </trkpt>
      <trkpt lat="43.61761" lon="3.74633">
        <ele>114.1</ele>
        <time>2022-10-07T13:27:25Z</time>
      </trkpt>
      <trkpt lat="43.61785" lon="3.74626">
        <ele>114.9</ele>
        <time>2022-10-07T13:27:35Z</time>
      </trkpt>
      <trkpt lat="43.61809" lon="3.74617">
        <ele>115.1</ele>
        <time>2022-10-07T13:27:45Z</time>
      </trkpt>
      <trkpt lat="43.61816" lon="3.74606">
        <ele>116</ele>
        <time>2022-10-07T13:28:35Z</time>
      </trkpt>
      <trkpt lat="43.61807" lon="3.74598">
        <ele>117.3</ele>
        <time>2022-10-07T13:28:55Z</time>
      </trkpt>
      <trkpt lat="43.618" lon="3.74589">
        <ele>119.1</ele>
        <time>2022-10-07T13:29:05Z</time>
      </trkpt>
      <trkpt lat="43.61794" lon="3.74567">
        <ele>122.7</ele>
        <time>2022-10-07T13:29:35Z</time>
      </trkpt>
      <trkpt lat="43.61787" lon="3.74556">
        <ele>125.3</ele>
        <time>2022-10-07T13:29:55Z</time>
      </trkpt>
      <trkpt lat="43.6178" lon="3.74543">
        <ele>128.4</ele>
        <time>2022-10-07T13:30:05Z</time>
      </trkpt>
      <trkpt lat="43.61768" lon="3.74535">
        <ele>130.9</ele>
        <time>2022-10-07T13:30:15Z</time>
      </trkpt>
      <trkpt lat="43.61754" lon="3.74533">
        <ele>132.7</ele>
        <time>2022-10-07T13:30:25Z</time>
      </trkpt>
      <trkpt lat="43.61741" lon="3.74528">
        <ele>133.3</ele>
        <time>2022-10-07T13:30:35Z</time>
      </trkpt>
      <trkpt lat="43.6174" lon="3.74511">
        <ele>135.7</ele>
        <time>2022-10-07T13:30:45Z</time>
      </trkpt>
      <trkpt lat="43.6174" lon="3.74495">
        <ele>137.8</ele>
        <time>2022-10-07T13:30:55Z</time>
      </trkpt>
      <trkpt lat="43.61738" lon="3.74479">
        <ele>139.1</ele>
        <time>2022-10-07T13:31:05Z</time>
      </trkpt>
      <trkpt lat="43.61738" lon="3.74461">
        <ele>140.3</ele>
        <time>2022-10-07T13:31:15Z</time>
      </trkpt>
      <trkpt lat="43.61739" lon="3.74443">
        <ele>141.3</ele>
        <time>2022-10-07T13:31:25Z</time>
      </trkpt>
      <trkpt lat="43.6174" lon="3.74423">
        <ele>142.1</ele>
        <time>2022-10-07T13:31:35Z</time>
      </trkpt>
      <trkpt lat="43.6174" lon="3.74402">
        <ele>142.8</ele>
        <time>2022-10-07T13:31:45Z</time>
      </trkpt>
      <trkpt lat="43.61743" lon="3.7438">
        <ele>144.1</ele>
        <time>2022-10-07T13:31:55Z</time>
      </trkpt>
      <trkpt lat="43.61746" lon="3.7436">
        <ele>145.8</ele>
        <time>2022-10-07T13:32:05Z</time>
      </trkpt>
      <trkpt lat="43.61749" lon="3.74341">
        <ele>147.4</ele>
        <time>2022-10-07T13:32:15Z</time>
      </trkpt>
      <trkpt lat="43.61753" lon="3.74323">
        <ele>148.3</ele>
        <time>2022-10-07T13:32:25Z</time>
      </trkpt>
      <trkpt lat="43.61771" lon="3.74305">
        <ele>149</ele>
        <time>2022-10-07T13:32:35Z</time>
      </trkpt>
      <trkpt lat="43.61784" lon="3.74289">
        <ele>150.2</ele>
        <time>2022-10-07T13:32:45Z</time>
      </trkpt>
      <trkpt lat="43.61797" lon="3.74266">
        <ele>151.7</ele>
        <time>2022-10-07T13:32:55Z</time>
      </trkpt>
      <trkpt lat="43.6181" lon="3.74241">
        <ele>151.9</ele>
        <time>2022-10-07T13:33:05Z</time>
      </trkpt>
      <trkpt lat="43.61822" lon="3.74217">
        <ele>151.8</ele>
        <time>2022-10-07T13:33:15Z</time>
      </trkpt>
      <trkpt lat="43.61833" lon="3.74189">
        <ele>151.6</ele>
        <time>2022-10-07T13:33:25Z</time>
      </trkpt>
      <trkpt lat="43.61851" lon="3.74161">
        <ele>150.4</ele>
        <time>2022-10-07T13:33:35Z</time>
      </trkpt>
      <trkpt lat="43.61871" lon="3.74148">
        <ele>149.7</ele>
        <time>2022-10-07T13:33:45Z</time>
      </trkpt>
      <trkpt lat="43.61878" lon="3.74117">
        <ele>149.1</ele>
        <time>2022-10-07T13:33:55Z</time>
      </trkpt>
      <trkpt lat="43.61867" lon="3.74094">
        <ele>150.1</ele>
        <time>2022-10-07T13:34:05Z</time>
      </trkpt>
      <trkpt lat="43.61839" lon="3.7407">
        <ele>149.6</ele>
        <time>2022-10-07T13:34:15Z</time>
      </trkpt>
      <trkpt lat="43.61812" lon="3.74031">
        <ele>149.8</ele>
        <time>2022-10-07T13:34:25Z</time>
      </trkpt>
      <trkpt lat="43.61779" lon="3.73991">
        <ele>148.8</ele>
        <time>2022-10-07T13:34:35Z</time>
      </trkpt>
      <trkpt lat="43.6175" lon="3.73948">
        <ele>147.9</ele>
        <time>2022-10-07T13:34:45Z</time>
      </trkpt>
      <trkpt lat="43.61755" lon="3.73881">
        <ele>147.6</ele>
        <time>2022-10-07T13:34:55Z</time>
      </trkpt>
      <trkpt lat="43.61743" lon="3.73824">
        <ele>146.2</ele>
        <time>2022-10-07T13:35:05Z</time>
      </trkpt>
      <trkpt lat="43.61718" lon="3.7378">
        <ele>146.6</ele>
        <time>2022-10-07T13:35:15Z</time>
      </trkpt>
      <trkpt lat="43.61725" lon="3.73729">
        <ele>145.3</ele>
        <time>2022-10-07T13:35:25Z</time>
      </trkpt>
      <trkpt lat="43.61726" lon="3.73673">
        <ele>142.3</ele>
        <time>2022-10-07T13:35:35Z</time>
      </trkpt>
      <trkpt lat="43.61691" lon="3.73646">
        <ele>140.4</ele>
        <time>2022-10-07T13:35:45Z</time>
      </trkpt>
      <trkpt lat="43.61654" lon="3.73631">
        <ele>142</ele>
        <time>2022-10-07T13:35:55Z</time>
      </trkpt>
      <trkpt lat="43.61619" lon="3.73618">
        <ele>143.8</ele>
        <time>2022-10-07T13:36:05Z</time>
      </trkpt>
      <trkpt lat="43.61594" lon="3.73604">
        <ele>143.7</ele>
        <time>2022-10-07T13:36:15Z</time>
      </trkpt>
      <trkpt lat="43.61583" lon="3.73619">
        <ele>139.5</ele>
        <time>2022-10-07T13:36:25Z</time>
      </trkpt>
      <trkpt lat="43.6157" lon="3.73635">
        <ele>134.2</ele>
        <time>2022-10-07T13:36:35Z</time>
      </trkpt>
      <trkpt lat="43.61566" lon="3.73664">
        <ele>128.6</ele>
        <time>2022-10-07T13:36:45Z</time>
      </trkpt>
      <trkpt lat="43.61565" lon="3.73697">
        <ele>123.2</ele>
        <time>2022-10-07T13:36:55Z</time>
      </trkpt>
      <trkpt lat="43.61565" lon="3.73719">
        <ele>122.5</ele>
        <time>2022-10-07T13:37:25Z</time>
      </trkpt>
      <trkpt lat="43.61558" lon="3.7375">
        <ele>120.8</ele>
        <time>2022-10-07T13:37:45Z</time>
      </trkpt>
      <trkpt lat="43.61551" lon="3.73781">
        <ele>121.9</ele>
        <time>2022-10-07T13:37:55Z</time>
      </trkpt>
      <trkpt lat="43.61538" lon="3.73825">
        <ele>117.9</ele>
        <time>2022-10-07T13:38:05Z</time>
      </trkpt>
      <trkpt lat="43.61509" lon="3.73826">
        <ele>115.8</ele>
        <time>2022-10-07T13:38:15Z</time>
      </trkpt>
      <trkpt lat="43.61489" lon="3.73809">
        <ele>117.1</ele>
        <time>2022-10-07T13:38:25Z</time>
      </trkpt>
      <trkpt lat="43.61477" lon="3.73791">
        <ele>119.4</ele>
        <time>2022-10-07T13:38:35Z</time>
      </trkpt>
      <trkpt lat="43.61472" lon="3.73767">
        <ele>121</ele>
        <time>2022-10-07T13:38:45Z</time>
      </trkpt>
      <trkpt lat="43.6147" lon="3.73743">
        <ele>121.4</ele>
        <time>2022-10-07T13:38:55Z</time>
      </trkpt>
      <trkpt lat="43.61467" lon="3.73718">
        <ele>122.6</ele>
        <time>2022-10-07T13:39:05Z</time>
      </trkpt>
      <trkpt lat="43.61461" lon="3.73689">
        <ele>123.5</ele>
        <time>2022-10-07T13:39:15Z</time>
      </trkpt>
      <trkpt lat="43.6145" lon="3.73671">
        <ele>125</ele>
        <time>2022-10-07T13:39:25Z</time>
      </trkpt>
      <trkpt lat="43.61439" lon="3.73664">
        <ele>127</ele>
        <time>2022-10-07T13:39:35Z</time>
      </trkpt>
      <trkpt lat="43.61429" lon="3.73671">
        <ele>128.5</ele>
        <time>2022-10-07T13:39:45Z</time>
      </trkpt>
      <trkpt lat="43.61417" lon="3.73678">
        <ele>129.7</ele>
        <time>2022-10-07T13:39:55Z</time>
      </trkpt>
      <trkpt lat="43.61405" lon="3.73684">
        <ele>131.5</ele>
        <time>2022-10-07T13:40:05Z</time>
      </trkpt>
      <trkpt lat="43.61393" lon="3.73691">
        <ele>133.4</ele>
        <time>2022-10-07T13:40:15Z</time>
      </trkpt>
      <trkpt lat="43.6138" lon="3.73699">
        <ele>134.6</ele>
        <time>2022-10-07T13:40:25Z</time>
      </trkpt>
      <trkpt lat="43.61367" lon="3.73704">
        <ele>135.8</ele>
        <time>2022-10-07T13:40:35Z</time>
      </trkpt>
      <trkpt lat="43.61353" lon="3.73705">
        <ele>137.1</ele>
        <time>2022-10-07T13:40:45Z</time>
      </trkpt>
      <trkpt lat="43.61338" lon="3.73706">
        <ele>138.1</ele>
        <time>2022-10-07T13:40:55Z</time>
      </trkpt>
      <trkpt lat="43.61324" lon="3.73708">
        <ele>139.1</ele>
        <time>2022-10-07T13:41:05Z</time>
      </trkpt>
      <trkpt lat="43.61308" lon="3.73712">
        <ele>139.9</ele>
        <time>2022-10-07T13:41:15Z</time>
      </trkpt>
      <trkpt lat="43.61295" lon="3.73718">
        <ele>140.6</ele>
        <time>2022-10-07T13:41:25Z</time>
      </trkpt>
      <trkpt lat="43.61282" lon="3.73723">
        <ele>142.2</ele>
        <time>2022-10-07T13:41:35Z</time>
      </trkpt>
      <trkpt lat="43.61268" lon="3.73722">
        <ele>143.4</ele>
        <time>2022-10-07T13:41:45Z</time>
      </trkpt>
      <trkpt lat="43.61255" lon="3.73717">
        <ele>144.7</ele>
        <time>2022-10-07T13:41:55Z</time>
      </trkpt>
      <trkpt lat="43.6124" lon="3.73712">
        <ele>146.2</ele>
        <time>2022-10-07T13:42:05Z</time>
      </trkpt>
      <trkpt lat="43.61226" lon="3.73705">
        <ele>148</ele>
        <time>2022-10-07T13:42:15Z</time>
      </trkpt>
      <trkpt lat="43.61211" lon="3.73696">
        <ele>150.6</ele>
        <time>2022-10-07T13:42:25Z</time>
      </trkpt>
      <trkpt lat="43.61197" lon="3.73691">
        <ele>152</ele>
        <time>2022-10-07T13:42:35Z</time>
      </trkpt>
      <trkpt lat="43.61184" lon="3.73686">
        <ele>153.1</ele>
        <time>2022-10-07T13:42:45Z</time>
      </trkpt>
      <trkpt lat="43.61175" lon="3.73679">
        <ele>154</ele>
        <time>2022-10-07T13:42:55Z</time>
      </trkpt>
      <trkpt lat="43.61169" lon="3.73665">
        <ele>154.8</ele>
        <time>2022-10-07T13:43:45Z</time>
      </trkpt>
      <trkpt lat="43.61156" lon="3.73645">
        <ele>155</ele>
        <time>2022-10-07T13:44:05Z</time>
      </trkpt>
      <trkpt lat="43.6114" lon="3.73635">
        <ele>155.8</ele>
        <time>2022-10-07T13:44:15Z</time>
      </trkpt>
      <trkpt lat="43.61124" lon="3.73619">
        <ele>155.7</ele>
        <time>2022-10-07T13:44:25Z</time>
      </trkpt>
      <trkpt lat="43.61119" lon="3.73596">
        <ele>155.3</ele>
        <time>2022-10-07T13:44:35Z</time>
      </trkpt>
      <trkpt lat="43.61137" lon="3.73563">
        <ele>154.3</ele>
        <time>2022-10-07T13:44:45Z</time>
      </trkpt>
      <trkpt lat="43.6115" lon="3.73522">
        <ele>152.1</ele>
        <time>2022-10-07T13:44:55Z</time>
      </trkpt>
      <trkpt lat="43.61139" lon="3.73486">
        <ele>153.5</ele>
        <time>2022-10-07T13:45:05Z</time>
      </trkpt>
      <trkpt lat="43.61138" lon="3.73457">
        <ele>155.3</ele>
        <time>2022-10-07T13:45:15Z</time>
      </trkpt>
      <trkpt lat="43.61144" lon="3.73437">
        <ele>155.7</ele>
        <time>2022-10-07T13:45:25Z</time>
      </trkpt>
      <trkpt lat="43.61136" lon="3.73426">
        <ele>159.3</ele>
        <time>2022-10-07T13:45:55Z</time>
      </trkpt>
      <trkpt lat="43.61118" lon="3.73429">
        <ele>163.4</ele>
        <time>2022-10-07T13:46:25Z</time>
      </trkpt>
      <trkpt lat="43.61107" lon="3.73437">
        <ele>165.1</ele>
        <time>2022-10-07T13:46:45Z</time>
      </trkpt>
      <trkpt lat="43.61093" lon="3.73435">
        <ele>167.1</ele>
        <time>2022-10-07T13:46:55Z</time>
      </trkpt>
      <trkpt lat="43.61083" lon="3.73425">
        <ele>169.8</ele>
        <time>2022-10-07T13:47:05Z</time>
      </trkpt>
      <trkpt lat="43.61073" lon="3.73414">
        <ele>171.7</ele>
        <time>2022-10-07T13:47:15Z</time>
      </trkpt>
      <trkpt lat="43.61065" lon="3.73399">
        <ele>174</ele>
        <time>2022-10-07T13:47:25Z</time>
      </trkpt>
      <trkpt lat="43.61053" lon="3.73392">
        <ele>175.6</ele>
        <time>2022-10-07T13:47:35Z</time>
      </trkpt>
      <trkpt lat="43.61044" lon="3.73381">
        <ele>177.6</ele>
        <time>2022-10-07T13:47:45Z</time>
      </trkpt>
      <trkpt lat="43.61033" lon="3.73372">
        <ele>179.2</ele>
        <time>2022-10-07T13:47:55Z</time>
      </trkpt>
      <trkpt lat="43.61025" lon="3.73359">
        <ele>181</ele>
        <time>2022-10-07T13:48:05Z</time>
      </trkpt>
      <trkpt lat="43.61017" lon="3.73345">
        <ele>182</ele>
        <time>2022-10-07T13:48:15Z</time>
      </trkpt>
      <trkpt lat="43.61012" lon="3.73327">
        <ele>183.2</ele>
        <time>2022-10-07T13:48:25Z</time>
      </trkpt>
      <trkpt lat="43.6101" lon="3.7331">
        <ele>184.1</ele>
        <time>2022-10-07T13:48:35Z</time>
      </trkpt>
      <trkpt lat="43.61003" lon="3.73288">
        <ele>184.1</ele>
        <time>2022-10-07T13:48:45Z</time>
      </trkpt>
      <trkpt lat="43.61005" lon="3.73265">
        <ele>184.6</ele>
        <time>2022-10-07T13:48:55Z</time>
      </trkpt>
      <trkpt lat="43.61003" lon="3.73236">
        <ele>185.1</ele>
        <time>2022-10-07T13:49:05Z</time>
      </trkpt>
      <trkpt lat="43.61002" lon="3.73203">
        <ele>185.2</ele>
        <time>2022-10-07T13:49:15Z</time>
      </trkpt>
      <trkpt lat="43.60997" lon="3.7318">
        <ele>184.5</ele>
        <time>2022-10-07T13:49:25Z</time>
      </trkpt>
      <trkpt lat="43.60988" lon="3.73153">
        <ele>183.9</ele>
        <time>2022-10-07T13:49:35Z</time>
      </trkpt>
      <trkpt lat="43.60974" lon="3.73128">
        <ele>184.9</ele>
        <time>2022-10-07T13:49:45Z</time>
      </trkpt>
      <trkpt lat="43.60958" lon="3.73103">
        <ele>184.7</ele>
        <time>2022-10-07T13:49:55Z</time>
      </trkpt>
      <trkpt lat="43.60943" lon="3.73073">
        <ele>186.7</ele>
        <time>2022-10-07T13:50:05Z</time>
      </trkpt>
      <trkpt lat="43.60939" lon="3.73043">
        <ele>187.3</ele>
        <time>2022-10-07T13:50:15Z</time>
      </trkpt>
      <trkpt lat="43.60939" lon="3.73011">
        <ele>187.6</ele>
        <time>2022-10-07T13:50:25Z</time>
      </trkpt>
      <trkpt lat="43.60947" lon="3.72982">
        <ele>188</ele>
        <time>2022-10-07T13:50:35Z</time>
      </trkpt>
      <trkpt lat="43.60939" lon="3.72962">
        <ele>184.4</ele>
        <time>2022-10-07T13:50:45Z</time>
      </trkpt>
      <trkpt lat="43.60923" lon="3.7294">
        <ele>177.7</ele>
        <time>2022-10-07T13:50:55Z</time>
      </trkpt>
      <trkpt lat="43.60907" lon="3.72911">
        <ele>170.9</ele>
        <time>2022-10-07T13:51:05Z</time>
      </trkpt>
      <trkpt lat="43.60894" lon="3.72892">
        <ele>166.9</ele>
        <time>2022-10-07T13:51:15Z</time>
      </trkpt>
      <trkpt lat="43.6089" lon="3.72856">
        <ele>160.7</ele>
        <time>2022-10-07T13:51:25Z</time>
      </trkpt>
      <trkpt lat="43.60886" lon="3.72833">
        <ele>158.7</ele>
        <time>2022-10-07T13:51:35Z</time>
      </trkpt>
      <trkpt lat="43.6088" lon="3.72819">
        <ele>156.8</ele>
        <time>2022-10-07T13:51:45Z</time>
      </trkpt>
      <trkpt lat="43.60866" lon="3.72788">
        <ele>154.6</ele>
        <time>2022-10-07T13:51:55Z</time>
      </trkpt>
      <trkpt lat="43.60858" lon="3.72781">
        <ele>154.3</ele>
        <time>2022-10-07T13:52:25Z</time>
      </trkpt>
      <trkpt lat="43.6084" lon="3.72784">
        <ele>154.9</ele>
        <time>2022-10-07T13:52:45Z</time>
      </trkpt>
      <trkpt lat="43.6083" lon="3.72759">
        <ele>154.6</ele>
        <time>2022-10-07T13:52:55Z</time>
      </trkpt>
      <trkpt lat="43.60823" lon="3.72731">
        <ele>155.1</ele>
        <time>2022-10-07T13:53:05Z</time>
      </trkpt>
      <trkpt lat="43.60818" lon="3.727">
        <ele>156.5</ele>
        <time>2022-10-07T13:53:15Z</time>
      </trkpt>
      <trkpt lat="43.60814" lon="3.7267">
        <ele>157.7</ele>
        <time>2022-10-07T13:53:25Z</time>
      </trkpt>
      <trkpt lat="43.60809" lon="3.72643">
        <ele>158.6</ele>
        <time>2022-10-07T13:53:35Z</time>
      </trkpt>
      <trkpt lat="43.60804" lon="3.72616">
        <ele>159.3</ele>
        <time>2022-10-07T13:53:45Z</time>
      </trkpt>
      <trkpt lat="43.60799" lon="3.7259">
        <ele>160.2</ele>
        <time>2022-10-07T13:53:55Z</time>
      </trkpt>
      <trkpt lat="43.60791" lon="3.72568">
        <ele>161.9</ele>
        <time>2022-10-07T13:54:05Z</time>
      </trkpt>
      <trkpt lat="43.60783" lon="3.72546">
        <ele>163</ele>
        <time>2022-10-07T13:54:15Z</time>
      </trkpt>
      <trkpt lat="43.60776" lon="3.72517">
        <ele>163.3</ele>
        <time>2022-10-07T13:54:25Z</time>
      </trkpt>
      <trkpt lat="43.60768" lon="3.72489">
        <ele>164.4</ele>
        <time>2022-10-07T13:54:35Z</time>
      </trkpt>
      <trkpt lat="43.6076" lon="3.72463">
        <ele>165.7</ele>
        <time>2022-10-07T13:54:45Z</time>
      </trkpt>
      <trkpt lat="43.60753" lon="3.72438">
        <ele>166.7</ele>
        <time>2022-10-07T13:54:55Z</time>
      </trkpt>
      <trkpt lat="43.60746" lon="3.72412">
        <ele>167.7</ele>
        <time>2022-10-07T13:55:05Z</time>
      </trkpt>
      <trkpt lat="43.60735" lon="3.72392">
        <ele>170</ele>
        <time>2022-10-07T13:55:15Z</time>
      </trkpt>
      <trkpt lat="43.60727" lon="3.72371">
        <ele>172.1</ele>
        <time>2022-10-07T13:55:25Z</time>
      </trkpt>
      <trkpt lat="43.60719" lon="3.72354">
        <ele>173.7</ele>
        <time>2022-10-07T13:55:35Z</time>
      </trkpt>
      <trkpt lat="43.60708" lon="3.72342">
        <ele>175.4</ele>
        <time>2022-10-07T13:55:45Z</time>
      </trkpt>
      <trkpt lat="43.60701" lon="3.72319">
        <ele>176.4</ele>
        <time>2022-10-07T13:55:55Z</time>
      </trkpt>
      <trkpt lat="43.60698" lon="3.72301">
        <ele>176.8</ele>
        <time>2022-10-07T13:56:05Z</time>
      </trkpt>
      <trkpt lat="43.60706" lon="3.72284">
        <ele>177.1</ele>
        <time>2022-10-07T13:56:15Z</time>
      </trkpt>
      <trkpt lat="43.60717" lon="3.72265">
        <ele>178.3</ele>
        <time>2022-10-07T13:56:25Z</time>
      </trkpt>
      <trkpt lat="43.60719" lon="3.7224">
        <ele>179.6</ele>
        <time>2022-10-07T13:56:35Z</time>
      </trkpt>
      <trkpt lat="43.60719" lon="3.72216">
        <ele>180.3</ele>
        <time>2022-10-07T13:56:45Z</time>
      </trkpt>
      <trkpt lat="43.6072" lon="3.72194">
        <ele>181.4</ele>
        <time>2022-10-07T13:56:55Z</time>
      </trkpt>
      <trkpt lat="43.60716" lon="3.7217">
        <ele>182.7</ele>
        <time>2022-10-07T13:57:05Z</time>
      </trkpt>
      <trkpt lat="43.60714" lon="3.72147">
        <ele>184</ele>
        <time>2022-10-07T13:57:15Z</time>
      </trkpt>
      <trkpt lat="43.60714" lon="3.72129">
        <ele>185.8</ele>
        <time>2022-10-07T13:57:25Z</time>
      </trkpt>
      <trkpt lat="43.60714" lon="3.72107">
        <ele>188.1</ele>
        <time>2022-10-07T13:57:35Z</time>
      </trkpt>
      <trkpt lat="43.60717" lon="3.72087">
        <ele>189.8</ele>
        <time>2022-10-07T13:57:45Z</time>
      </trkpt>
      <trkpt lat="43.60718" lon="3.72064">
        <ele>190.5</ele>
        <time>2022-10-07T13:57:55Z</time>
      </trkpt>
      <trkpt lat="43.60718" lon="3.72044">
        <ele>191.7</ele>
        <time>2022-10-07T13:58:05Z</time>
      </trkpt>
      <trkpt lat="43.60714" lon="3.72023">
        <ele>193.3</ele>
        <time>2022-10-07T13:58:15Z</time>
      </trkpt>
      <trkpt lat="43.60706" lon="3.72008">
        <ele>195.2</ele>
        <time>2022-10-07T13:58:25Z</time>
      </trkpt>
      <trkpt lat="43.60696" lon="3.71996">
        <ele>196.1</ele>
        <time>2022-10-07T13:58:35Z</time>
      </trkpt>
      <trkpt lat="43.60688" lon="3.71984">
        <ele>197.8</ele>
        <time>2022-10-07T13:58:45Z</time>
      </trkpt>
      <trkpt lat="43.6068" lon="3.71968">
        <ele>200</ele>
        <time>2022-10-07T13:58:55Z</time>
      </trkpt>
      <trkpt lat="43.60676" lon="3.71948">
        <ele>202.5</ele>
        <time>2022-10-07T13:59:05Z</time>
      </trkpt>
      <trkpt lat="43.60675" lon="3.71929">
        <ele>204.6</ele>
        <time>2022-10-07T13:59:15Z</time>
      </trkpt>
      <trkpt lat="43.60672" lon="3.71912">
        <ele>205.7</ele>
        <time>2022-10-07T13:59:25Z</time>
      </trkpt>
      <trkpt lat="43.60668" lon="3.71892">
        <ele>206</ele>
        <time>2022-10-07T13:59:35Z</time>
      </trkpt>
      <trkpt lat="43.60665" lon="3.7187">
        <ele>205.2</ele>
        <time>2022-10-07T13:59:45Z</time>
      </trkpt>
      <trkpt lat="43.6066" lon="3.71842">
        <ele>204.2</ele>
        <time>2022-10-07T13:59:55Z</time>
      </trkpt>
      <trkpt lat="43.60649" lon="3.71804">
        <ele>200.1</ele>
        <time>2022-10-07T14:00:05Z</time>
      </trkpt>
      <trkpt lat="43.60626" lon="3.71754">
        <ele>196.8</ele>
        <time>2022-10-07T14:00:15Z</time>
      </trkpt>
      <trkpt lat="43.60623" lon="3.71695">
        <ele>192.4</ele>
        <time>2022-10-07T14:00:25Z</time>
      </trkpt>
      <trkpt lat="43.6067" lon="3.71671">
        <ele>190.5</ele>
        <time>2022-10-07T14:00:35Z</time>
      </trkpt>
      <trkpt lat="43.60712" lon="3.71608">
        <ele>187.3</ele>
        <time>2022-10-07T14:00:45Z</time>
      </trkpt>
      <trkpt lat="43.60703" lon="3.7152">
        <ele>182.9</ele>
        <time>2022-10-07T14:00:55Z</time>
      </trkpt>
      <trkpt lat="43.60685" lon="3.7145">
        <ele>175.3</ele>
        <time>2022-10-07T14:01:05Z</time>
      </trkpt>
      <trkpt lat="43.60689" lon="3.7142">
        <ele>171.8</ele>
        <time>2022-10-07T14:01:15Z</time>
      </trkpt>
      <trkpt lat="43.60717" lon="3.71456">
        <ele>170.7</ele>
        <time>2022-10-07T14:01:25Z</time>
      </trkpt>
      <trkpt lat="43.60757" lon="3.71474">
        <ele>168</ele>
        <time>2022-10-07T14:01:35Z</time>
      </trkpt>
      <trkpt lat="43.60773" lon="3.71528">
        <ele>169.2</ele>
        <time>2022-10-07T14:01:45Z</time>
      </trkpt>
      <trkpt lat="43.60766" lon="3.71582">
        <ele>169.4</ele>
        <time>2022-10-07T14:01:55Z</time>
      </trkpt>
      <trkpt lat="43.60756" lon="3.71653">
        <ele>171</ele>
        <time>2022-10-07T14:02:05Z</time>
      </trkpt>
      <trkpt lat="43.60749" lon="3.71699">
        <ele>171.5</ele>
        <time>2022-10-07T14:02:15Z</time>
      </trkpt>
      <trkpt lat="43.60766" lon="3.71713">
        <ele>171.2</ele>
        <time>2022-10-07T14:02:25Z</time>
      </trkpt>
      <trkpt lat="43.60798" lon="3.71715">
        <ele>170.3</ele>
        <time>2022-10-07T14:02:35Z</time>
      </trkpt>
      <trkpt lat="43.60835" lon="3.71711">
        <ele>168.7</ele>
        <time>2022-10-07T14:02:45Z</time>
      </trkpt>
      <trkpt lat="43.60857" lon="3.71671">
        <ele>168.9</ele>
        <time>2022-10-07T14:02:55Z</time>
      </trkpt>
      <trkpt lat="43.60863" lon="3.71623">
        <ele>168.6</ele>
        <time>2022-10-07T14:03:05Z</time>
      </trkpt>
      <trkpt lat="43.60863" lon="3.71571">
        <ele>168.6</ele>
        <time>2022-10-07T14:03:15Z</time>
      </trkpt>
      <trkpt lat="43.60854" lon="3.71521">
        <ele>169.3</ele>
        <time>2022-10-07T14:03:25Z</time>
      </trkpt>
      <trkpt lat="43.60844" lon="3.71477">
        <ele>168.9</ele>
        <time>2022-10-07T14:03:35Z</time>
      </trkpt>
      <trkpt lat="43.60841" lon="3.71428">
        <ele>167.8</ele>
        <time>2022-10-07T14:03:45Z</time>
      </trkpt>
      <trkpt lat="43.60848" lon="3.71376">
        <ele>167.8</ele>
        <time>2022-10-07T14:03:55Z</time>
      </trkpt>
      <trkpt lat="43.60852" lon="3.71315">
        <ele>166.1</ele>
        <time>2022-10-07T14:04:05Z</time>
      </trkpt>
      <trkpt lat="43.60843" lon="3.71241">
        <ele>162</ele>
        <time>2022-10-07T14:04:15Z</time>
      </trkpt>
      <trkpt lat="43.60841" lon="3.71175">
        <ele>162</ele>
        <time>2022-10-07T14:04:25Z</time>
      </trkpt>
      <trkpt lat="43.60849" lon="3.71111">
        <ele>164.6</ele>
        <time>2022-10-07T14:04:35Z</time>
      </trkpt>
      <trkpt lat="43.60862" lon="3.71053">
        <ele>165.8</ele>
        <time>2022-10-07T14:04:45Z</time>
      </trkpt>
      <trkpt lat="43.60882" lon="3.71016">
        <ele>163.5</ele>
        <time>2022-10-07T14:04:55Z</time>
      </trkpt>
      <trkpt lat="43.60905" lon="3.70986">
        <ele>161.3</ele>
        <time>2022-10-07T14:05:05Z</time>
      </trkpt>
      <trkpt lat="43.6093" lon="3.70965">
        <ele>160.3</ele>
        <time>2022-10-07T14:05:15Z</time>
      </trkpt>
      <trkpt lat="43.60961" lon="3.7095">
        <ele>160.7</ele>
        <time>2022-10-07T14:05:25Z</time>
      </trkpt>
      <trkpt lat="43.60992" lon="3.7094">
        <ele>161.2</ele>
        <time>2022-10-07T14:05:35Z</time>
      </trkpt>
      <trkpt lat="43.61027" lon="3.70945">
        <ele>162.1</ele>
        <time>2022-10-07T14:05:45Z</time>
      </trkpt>
      <trkpt lat="43.6106" lon="3.70954">
        <ele>162.4</ele>
        <time>2022-10-07T14:05:55Z</time>
      </trkpt>
      <trkpt lat="43.61093" lon="3.7096">
        <ele>163.4</ele>
        <time>2022-10-07T14:06:05Z</time>
      </trkpt>
      <trkpt lat="43.61123" lon="3.70968">
        <ele>164.6</ele>
        <time>2022-10-07T14:06:15Z</time>
      </trkpt>
      <trkpt lat="43.6115" lon="3.70971">
        <ele>165.9</ele>
        <time>2022-10-07T14:06:25Z</time>
      </trkpt>
      <trkpt lat="43.61174" lon="3.70969">
        <ele>167.6</ele>
        <time>2022-10-07T14:06:35Z</time>
      </trkpt>
      <trkpt lat="43.61199" lon="3.70968">
        <ele>168.8</ele>
        <time>2022-10-07T14:06:45Z</time>
      </trkpt>
      <trkpt lat="43.61224" lon="3.70968">
        <ele>170.4</ele>
        <time>2022-10-07T14:06:55Z</time>
      </trkpt>
      <trkpt lat="43.61249" lon="3.70971">
        <ele>172</ele>
        <time>2022-10-07T14:07:05Z</time>
      </trkpt>
      <trkpt lat="43.61272" lon="3.70972">
        <ele>173.6</ele>
        <time>2022-10-07T14:07:15Z</time>
      </trkpt>
      <trkpt lat="43.61293" lon="3.70956">
        <ele>175.1</ele>
        <time>2022-10-07T14:07:25Z</time>
      </trkpt>
      <trkpt lat="43.61312" lon="3.70934">
        <ele>176.8</ele>
        <time>2022-10-07T14:07:35Z</time>
      </trkpt>
      <trkpt lat="43.61328" lon="3.70909">
        <ele>178.5</ele>
        <time>2022-10-07T14:07:45Z</time>
      </trkpt>
      <trkpt lat="43.61345" lon="3.70897">
        <ele>180.3</ele>
        <time>2022-10-07T14:07:55Z</time>
      </trkpt>
      <trkpt lat="43.61355" lon="3.70903">
        <ele>181.3</ele>
        <time>2022-10-07T14:08:15Z</time>
      </trkpt>
      <trkpt lat="43.61361" lon="3.70883">
        <ele>182.2</ele>
        <time>2022-10-07T14:08:35Z</time>
      </trkpt>
      <trkpt lat="43.61373" lon="3.70868">
        <ele>184</ele>
        <time>2022-10-07T14:08:45Z</time>
      </trkpt>
      <trkpt lat="43.61384" lon="3.70853">
        <ele>185.8</ele>
        <time>2022-10-07T14:08:55Z</time>
      </trkpt>
      <trkpt lat="43.61395" lon="3.70835">
        <ele>187.6</ele>
        <time>2022-10-07T14:09:05Z</time>
      </trkpt>
      <trkpt lat="43.61405" lon="3.70818">
        <ele>190.1</ele>
        <time>2022-10-07T14:09:15Z</time>
      </trkpt>
      <trkpt lat="43.61416" lon="3.70802">
        <ele>192.1</ele>
        <time>2022-10-07T14:09:25Z</time>
      </trkpt>
      <trkpt lat="43.61427" lon="3.70786">
        <ele>193.1</ele>
        <time>2022-10-07T14:09:35Z</time>
      </trkpt>
      <trkpt lat="43.61438" lon="3.7077">
        <ele>194</ele>
        <time>2022-10-07T14:09:45Z</time>
      </trkpt>
      <trkpt lat="43.61451" lon="3.70754">
        <ele>194.9</ele>
        <time>2022-10-07T14:09:55Z</time>
      </trkpt>
      <trkpt lat="43.61466" lon="3.70736">
        <ele>195.4</ele>
        <time>2022-10-07T14:10:05Z</time>
      </trkpt>
      <trkpt lat="43.61482" lon="3.70716">
        <ele>196</ele>
        <time>2022-10-07T14:10:15Z</time>
      </trkpt>
      <trkpt lat="43.61496" lon="3.70696">
        <ele>196</ele>
        <time>2022-10-07T14:10:25Z</time>
      </trkpt>
      <trkpt lat="43.61515" lon="3.70674">
        <ele>195.6</ele>
        <time>2022-10-07T14:10:35Z</time>
      </trkpt>
      <trkpt lat="43.61545" lon="3.70635">
        <ele>193.9</ele>
        <time>2022-10-07T14:10:45Z</time>
      </trkpt>
      <trkpt lat="43.61591" lon="3.70577">
        <ele>191.6</ele>
        <time>2022-10-07T14:10:55Z</time>
      </trkpt>
      <trkpt lat="43.61646" lon="3.70534">
        <ele>191.4</ele>
        <time>2022-10-07T14:11:05Z</time>
      </trkpt>
      <trkpt lat="43.61701" lon="3.70505">
        <ele>192</ele>
        <time>2022-10-07T14:11:15Z</time>
      </trkpt>
      <trkpt lat="43.61756" lon="3.70466">
        <ele>191</ele>
        <time>2022-10-07T14:11:25Z</time>
      </trkpt>
      <trkpt lat="43.6181" lon="3.70426">
        <ele>190.3</ele>
        <time>2022-10-07T14:11:35Z</time>
      </trkpt>
      <trkpt lat="43.61853" lon="3.70364">
        <ele>189.5</ele>
        <time>2022-10-07T14:11:45Z</time>
      </trkpt>
      <trkpt lat="43.61889" lon="3.70292">
        <ele>185.5</ele>
        <time>2022-10-07T14:11:55Z</time>
      </trkpt>
      <trkpt lat="43.61925" lon="3.70208">
        <ele>180.4</ele>
        <time>2022-10-07T14:12:05Z</time>
      </trkpt>
      <trkpt lat="43.61957" lon="3.70129">
        <ele>179</ele>
        <time>2022-10-07T14:12:15Z</time>
      </trkpt>
      <trkpt lat="43.61987" lon="3.70069">
        <ele>176</ele>
        <time>2022-10-07T14:12:25Z</time>
      </trkpt>
      <trkpt lat="43.62011" lon="3.70035">
        <ele>172</ele>
        <time>2022-10-07T14:12:35Z</time>
      </trkpt>
      <trkpt lat="43.62059" lon="3.70026">
        <ele>169.7</ele>
        <time>2022-10-07T14:12:45Z</time>
      </trkpt>
      <trkpt lat="43.6212" lon="3.70005">
        <ele>166.5</ele>
        <time>2022-10-07T14:12:55Z</time>
      </trkpt>
      <trkpt lat="43.62185" lon="3.69978">
        <ele>163.6</ele>
        <time>2022-10-07T14:13:05Z</time>
      </trkpt>
      <trkpt lat="43.62246" lon="3.69952">
        <ele>163.3</ele>
        <time>2022-10-07T14:13:15Z</time>
      </trkpt>
      <trkpt lat="43.62295" lon="3.69927">
        <ele>162.5</ele>
        <time>2022-10-07T14:13:25Z</time>
      </trkpt>
      <trkpt lat="43.62348" lon="3.69917">
        <ele>160</ele>
        <time>2022-10-07T14:13:35Z</time>
      </trkpt>
      <trkpt lat="43.6242" lon="3.69886">
        <ele>154.7</ele>
        <time>2022-10-07T14:13:45Z</time>
      </trkpt>
      <trkpt lat="43.62483" lon="3.69895">
        <ele>152</ele>
        <time>2022-10-07T14:13:55Z</time>
      </trkpt>
      <trkpt lat="43.62505" lon="3.69923">
        <ele>154.4</ele>
        <time>2022-10-07T14:14:05Z</time>
      </trkpt>
      <trkpt lat="43.62511" lon="3.69939">
        <ele>155.2</ele>
        <time>2022-10-07T14:14:15Z</time>
      </trkpt>
      <trkpt lat="43.62533" lon="3.69972">
        <ele>156.8</ele>
        <time>2022-10-07T14:14:25Z</time>
      </trkpt>
      <trkpt lat="43.62557" lon="3.70009">
        <ele>155.9</ele>
        <time>2022-10-07T14:14:35Z</time>
      </trkpt>
      <trkpt lat="43.62579" lon="3.7004">
        <ele>154.4</ele>
        <time>2022-10-07T14:14:45Z</time>
      </trkpt>
      <trkpt lat="43.62602" lon="3.7007">
        <ele>152.3</ele>
        <time>2022-10-07T14:14:55Z</time>
      </trkpt>
      <trkpt lat="43.62635" lon="3.70087">
        <ele>148.5</ele>
        <time>2022-10-07T14:16:25Z</time>
      </trkpt>
      <trkpt lat="43.62653" lon="3.70101">
        <ele>147.6</ele>
        <time>2022-10-07T14:16:45Z</time>
      </trkpt>
      <trkpt lat="43.6268" lon="3.70133">
        <ele>145.9</ele>
        <time>2022-10-07T14:16:55Z</time>
      </trkpt>
      <trkpt lat="43.62681" lon="3.7017">
        <ele>146.8</ele>
        <time>2022-10-07T14:17:05Z</time>
      </trkpt>
      <trkpt lat="43.62674" lon="3.70213">
        <ele>146.5</ele>
        <time>2022-10-07T14:17:15Z</time>
      </trkpt>
      <trkpt lat="43.62666" lon="3.70258">
        <ele>146</ele>
        <time>2022-10-07T14:17:25Z</time>
      </trkpt>
      <trkpt lat="43.62656" lon="3.70301">
        <ele>145.9</ele>
        <time>2022-10-07T14:17:35Z</time>
      </trkpt>
      <trkpt lat="43.62649" lon="3.70342">
        <ele>146.4</ele>
        <time>2022-10-07T14:17:45Z</time>
      </trkpt>
      <trkpt lat="43.62642" lon="3.70378">
        <ele>147.4</ele>
        <time>2022-10-07T14:17:55Z</time>
      </trkpt>
      <trkpt lat="43.62635" lon="3.70413">
        <ele>148.3</ele>
        <time>2022-10-07T14:18:05Z</time>
      </trkpt>
      <trkpt lat="43.62629" lon="3.70449">
        <ele>149.4</ele>
        <time>2022-10-07T14:18:15Z</time>
      </trkpt>
      <trkpt lat="43.62621" lon="3.70484">
        <ele>150.4</ele>
        <time>2022-10-07T14:18:25Z</time>
      </trkpt>
      <trkpt lat="43.6262" lon="3.70502">
        <ele>150.7</ele>
        <time>2022-10-07T14:18:35Z</time>
      </trkpt>
      <trkpt lat="43.62642" lon="3.70491">
        <ele>149.8</ele>
        <time>2022-10-07T14:19:05Z</time>
      </trkpt>
      <trkpt lat="43.62675" lon="3.70473">
        <ele>150.3</ele>
        <time>2022-10-07T14:19:25Z</time>
      </trkpt>
      <trkpt lat="43.62709" lon="3.70451">
        <ele>150.4</ele>
        <time>2022-10-07T14:19:35Z</time>
      </trkpt>
      <trkpt lat="43.62744" lon="3.70429">
        <ele>149.9</ele>
        <time>2022-10-07T14:19:45Z</time>
      </trkpt>
      <trkpt lat="43.62782" lon="3.70404">
        <ele>147.9</ele>
        <time>2022-10-07T14:19:55Z</time>
      </trkpt>
      <trkpt lat="43.62824" lon="3.70378">
        <ele>145.5</ele>
        <time>2022-10-07T14:20:05Z</time>
      </trkpt>
      <trkpt lat="43.62882" lon="3.70344">
        <ele>143.5</ele>
        <time>2022-10-07T14:20:15Z</time>
      </trkpt>
      <trkpt lat="43.62968" lon="3.70318">
        <ele>138.2</ele>
        <time>2022-10-07T14:20:25Z</time>
      </trkpt>
      <trkpt lat="43.63067" lon="3.70313">
        <ele>134.9</ele>
        <time>2022-10-07T14:20:35Z</time>
      </trkpt>
      <trkpt lat="43.63119" lon="3.70308">
        <ele>133.5</ele>
        <time>2022-10-07T14:20:45Z</time>
      </trkpt>
      <trkpt lat="43.6312" lon="3.70272">
        <ele>133.1</ele>
        <time>2022-10-07T14:20:55Z</time>
      </trkpt>
      <trkpt lat="43.63106" lon="3.70215">
        <ele>134</ele>
        <time>2022-10-07T14:21:05Z</time>
      </trkpt>
      <trkpt lat="43.63093" lon="3.7016">
        <ele>133.7</ele>
        <time>2022-10-07T14:21:15Z</time>
      </trkpt>
      <trkpt lat="43.63104" lon="3.70132">
        <ele>133</ele>
        <time>2022-10-07T14:21:25Z</time>
      </trkpt>
      <trkpt lat="43.63145" lon="3.70104">
        <ele>130.6</ele>
        <time>2022-10-07T14:21:35Z</time>
      </trkpt>
      <trkpt lat="43.63168" lon="3.70039">
        <ele>130.2</ele>
        <time>2022-10-07T14:21:45Z</time>
      </trkpt>
      <trkpt lat="43.63194" lon="3.70016">
        <ele>133</ele>
        <time>2022-10-07T14:21:55Z</time>
      </trkpt>
      <trkpt lat="43.63213" lon="3.7">
        <ele>135</ele>
        <time>2022-10-07T14:22:05Z</time>
      </trkpt>
      <trkpt lat="43.63231" lon="3.69982">
        <ele>136.5</ele>
        <time>2022-10-07T14:22:15Z</time>
      </trkpt>
      <trkpt lat="43.63245" lon="3.69958">
        <ele>137.9</ele>
        <time>2022-10-07T14:22:25Z</time>
      </trkpt>
      <trkpt lat="43.63264" lon="3.69937">
        <ele>138.7</ele>
        <time>2022-10-07T14:22:35Z</time>
      </trkpt>
      <trkpt lat="43.63285" lon="3.69926">
        <ele>140.1</ele>
        <time>2022-10-07T14:22:45Z</time>
      </trkpt>
      <trkpt lat="43.63302" lon="3.69916">
        <ele>141.6</ele>
        <time>2022-10-07T14:22:55Z</time>
      </trkpt>
      <trkpt lat="43.63318" lon="3.699">
        <ele>143</ele>
        <time>2022-10-07T14:23:05Z</time>
      </trkpt>
      <trkpt lat="43.63338" lon="3.69892">
        <ele>144.9</ele>
        <time>2022-10-07T14:23:15Z</time>
      </trkpt>
      <trkpt lat="43.63341" lon="3.69918">
        <ele>145</ele>
        <time>2022-10-07T14:23:25Z</time>
      </trkpt>
      <trkpt lat="43.6335" lon="3.69947">
        <ele>145.5</ele>
        <time>2022-10-07T14:23:35Z</time>
      </trkpt>
      <trkpt lat="43.63357" lon="3.69982">
        <ele>146.1</ele>
        <time>2022-10-07T14:23:45Z</time>
      </trkpt>
      <trkpt lat="43.63355" lon="3.7002">
        <ele>146.9</ele>
        <time>2022-10-07T14:23:55Z</time>
      </trkpt>
      <trkpt lat="43.63355" lon="3.70059">
        <ele>147.3</ele>
        <time>2022-10-07T14:24:05Z</time>
      </trkpt>
      <trkpt lat="43.6336" lon="3.70095">
        <ele>148.4</ele>
        <time>2022-10-07T14:24:15Z</time>
      </trkpt>
      <trkpt lat="43.63361" lon="3.70127">
        <ele>150.1</ele>
        <time>2022-10-07T14:24:25Z</time>
      </trkpt>
      <trkpt lat="43.63364" lon="3.7016">
        <ele>151</ele>
        <time>2022-10-07T14:24:35Z</time>
      </trkpt>
      <trkpt lat="43.63363" lon="3.70193">
        <ele>151.9</ele>
        <time>2022-10-07T14:24:45Z</time>
      </trkpt>
      <trkpt lat="43.63362" lon="3.70227">
        <ele>153</ele>
        <time>2022-10-07T14:24:55Z</time>
      </trkpt>
      <trkpt lat="43.63355" lon="3.70256">
        <ele>152.9</ele>
        <time>2022-10-07T14:25:05Z</time>
      </trkpt>
      <trkpt lat="43.63363" lon="3.7029">
        <ele>154.1</ele>
        <time>2022-10-07T14:25:15Z</time>
      </trkpt>
      <trkpt lat="43.63368" lon="3.70326">
        <ele>154.2</ele>
        <time>2022-10-07T14:25:25Z</time>
      </trkpt>
      <trkpt lat="43.63365" lon="3.70366">
        <ele>155</ele>
        <time>2022-10-07T14:25:35Z</time>
      </trkpt>
      <trkpt lat="43.6336" lon="3.70411">
        <ele>155</ele>
        <time>2022-10-07T14:25:45Z</time>
      </trkpt>
      <trkpt lat="43.63366" lon="3.70454">
        <ele>154.1</ele>
        <time>2022-10-07T14:25:55Z</time>
      </trkpt>
      <trkpt lat="43.63377" lon="3.70502">
        <ele>153.5</ele>
        <time>2022-10-07T14:26:05Z</time>
      </trkpt>
      <trkpt lat="43.63384" lon="3.70556">
        <ele>152</ele>
        <time>2022-10-07T14:26:15Z</time>
      </trkpt>
      <trkpt lat="43.63405" lon="3.70606">
        <ele>151.6</ele>
        <time>2022-10-07T14:26:25Z</time>
      </trkpt>
      <trkpt lat="43.63413" lon="3.70665">
        <ele>151.7</ele>
        <time>2022-10-07T14:26:35Z</time>
      </trkpt>
      <trkpt lat="43.63422" lon="3.70717">
        <ele>152.2</ele>
        <time>2022-10-07T14:26:45Z</time>
      </trkpt>
      <trkpt lat="43.63432" lon="3.7077">
        <ele>152.6</ele>
        <time>2022-10-07T14:26:55Z</time>
      </trkpt>
      <trkpt lat="43.63442" lon="3.70829">
        <ele>152.9</ele>
        <time>2022-10-07T14:27:05Z</time>
      </trkpt>
      <trkpt lat="43.63452" lon="3.70886">
        <ele>152.3</ele>
        <time>2022-10-07T14:27:15Z</time>
      </trkpt>
      <trkpt lat="43.63491" lon="3.70897">
        <ele>152.7</ele>
        <time>2022-10-07T14:27:25Z</time>
      </trkpt>
      <trkpt lat="43.63529" lon="3.70907">
        <ele>153</ele>
        <time>2022-10-07T14:27:35Z</time>
      </trkpt>
      <trkpt lat="43.63553" lon="3.70871">
        <ele>154.6</ele>
        <time>2022-10-07T14:27:45Z</time>
      </trkpt>
      <trkpt lat="43.6357" lon="3.70855">
        <ele>155.2</ele>
        <time>2022-10-07T14:27:55Z</time>
      </trkpt>
      <trkpt lat="43.63575" lon="3.70902">
        <ele>154</ele>
        <time>2022-10-07T14:28:05Z</time>
      </trkpt>
      <trkpt lat="43.63583" lon="3.70959">
        <ele>154</ele>
        <time>2022-10-07T14:28:15Z</time>
      </trkpt>
      <trkpt lat="43.63603" lon="3.71011">
        <ele>154.7</ele>
        <time>2022-10-07T14:28:25Z</time>
      </trkpt>
      <trkpt lat="43.63617" lon="3.71053">
        <ele>153.9</ele>
        <time>2022-10-07T14:28:35Z</time>
      </trkpt>
      <trkpt lat="43.63614" lon="3.71113">
        <ele>154</ele>
        <time>2022-10-07T14:28:45Z</time>
      </trkpt>
      <trkpt lat="43.63618" lon="3.71174">
        <ele>152.8</ele>
        <time>2022-10-07T14:28:55Z</time>
      </trkpt>
      <trkpt lat="43.63636" lon="3.71228">
        <ele>151.8</ele>
        <time>2022-10-07T14:29:05Z</time>
      </trkpt>
      <trkpt lat="43.63658" lon="3.71282">
        <ele>150.5</ele>
        <time>2022-10-07T14:29:15Z</time>
      </trkpt>
      <trkpt lat="43.63689" lon="3.7133">
        <ele>149</ele>
        <time>2022-10-07T14:29:25Z</time>
      </trkpt>
      <trkpt lat="43.637" lon="3.7139">
        <ele>146</ele>
        <time>2022-10-07T14:29:35Z</time>
      </trkpt>
      <trkpt lat="43.63672" lon="3.71436">
        <ele>145.9</ele>
        <time>2022-10-07T14:29:45Z</time>
      </trkpt>
      <trkpt lat="43.6364" lon="3.71481">
        <ele>147.3</ele>
        <time>2022-10-07T14:29:55Z</time>
      </trkpt>
      <trkpt lat="43.63617" lon="3.71523">
        <ele>148.8</ele>
        <time>2022-10-07T14:30:05Z</time>
      </trkpt>
      <trkpt lat="43.63593" lon="3.71561">
        <ele>150.1</ele>
        <time>2022-10-07T14:30:15Z</time>
      </trkpt>
      <trkpt lat="43.63573" lon="3.71606">
        <ele>150.6</ele>
        <time>2022-10-07T14:30:25Z</time>
      </trkpt>
      <trkpt lat="43.63556" lon="3.71661">
        <ele>151</ele>
        <time>2022-10-07T14:30:35Z</time>
      </trkpt>
      <trkpt lat="43.63547" lon="3.71708">
        <ele>150</ele>
        <time>2022-10-07T14:30:45Z</time>
      </trkpt>
      <trkpt lat="43.63578" lon="3.71744">
        <ele>147.9</ele>
        <time>2022-10-07T14:30:55Z</time>
      </trkpt>
      <trkpt lat="43.63635" lon="3.71777">
        <ele>144.3</ele>
        <time>2022-10-07T14:31:05Z</time>
      </trkpt>
      <trkpt lat="43.63644" lon="3.71818">
        <ele>145.4</ele>
        <time>2022-10-07T14:31:15Z</time>
      </trkpt>
      <trkpt lat="43.63643" lon="3.71861">
        <ele>148.1</ele>
        <time>2022-10-07T14:31:25Z</time>
      </trkpt>
      <trkpt lat="43.63654" lon="3.71896">
        <ele>149.7</ele>
        <time>2022-10-07T14:31:35Z</time>
      </trkpt>
      <trkpt lat="43.63649" lon="3.7193">
        <ele>151.1</ele>
        <time>2022-10-07T14:31:45Z</time>
      </trkpt>
      <trkpt lat="43.63648" lon="3.71962">
        <ele>152.3</ele>
        <time>2022-10-07T14:31:55Z</time>
      </trkpt>
      <trkpt lat="43.63641" lon="3.7199">
        <ele>153.6</ele>
        <time>2022-10-07T14:32:05Z</time>
      </trkpt>
      <trkpt lat="43.63638" lon="3.72018">
        <ele>154.7</ele>
        <time>2022-10-07T14:32:15Z</time>
      </trkpt>
      <trkpt lat="43.6363" lon="3.72046">
        <ele>156.1</ele>
        <time>2022-10-07T14:32:25Z</time>
      </trkpt>
      <trkpt lat="43.63614" lon="3.72068">
        <ele>157.4</ele>
        <time>2022-10-07T14:32:35Z</time>
      </trkpt>
      <trkpt lat="43.63597" lon="3.72079">
        <ele>158.3</ele>
        <time>2022-10-07T14:32:45Z</time>
      </trkpt>
      <trkpt lat="43.63593" lon="3.72104">
        <ele>159.4</ele>
        <time>2022-10-07T14:32:55Z</time>
      </trkpt>
      <trkpt lat="43.63584" lon="3.72127">
        <ele>160</ele>
        <time>2022-10-07T14:33:05Z</time>
      </trkpt>
      <trkpt lat="43.63585" lon="3.72159">
        <ele>160.7</ele>
        <time>2022-10-07T14:33:15Z</time>
      </trkpt>
      <trkpt lat="43.6359" lon="3.72185">
        <ele>161.4</ele>
        <time>2022-10-07T14:33:25Z</time>
      </trkpt>
      <trkpt lat="43.63593" lon="3.72213">
        <ele>162.3</ele>
        <time>2022-10-07T14:33:35Z</time>
      </trkpt>
      <trkpt lat="43.63601" lon="3.72245">
        <ele>163.7</ele>
        <time>2022-10-07T14:33:45Z</time>
      </trkpt>
      <trkpt lat="43.63609" lon="3.72273">
        <ele>164.9</ele>
        <time>2022-10-07T14:33:55Z</time>
      </trkpt>
      <trkpt lat="43.63615" lon="3.72305">
        <ele>165.8</ele>
        <time>2022-10-07T14:34:05Z</time>
      </trkpt>
      <trkpt lat="43.63621" lon="3.72337">
        <ele>166.4</ele>
        <time>2022-10-07T14:34:15Z</time>
      </trkpt>
      <trkpt lat="43.63633" lon="3.7237">
        <ele>165.9</ele>
        <time>2022-10-07T14:34:25Z</time>
      </trkpt>
      <trkpt lat="43.63641" lon="3.72411">
        <ele>166.8</ele>
        <time>2022-10-07T14:34:35Z</time>
      </trkpt>
      <trkpt lat="43.63651" lon="3.72449">
        <ele>168</ele>
        <time>2022-10-07T14:34:45Z</time>
      </trkpt>
      <trkpt lat="43.6366" lon="3.72493">
        <ele>167.6</ele>
        <time>2022-10-07T14:34:55Z</time>
      </trkpt>
      <trkpt lat="43.63666" lon="3.72552">
        <ele>166</ele>
        <time>2022-10-07T14:35:05Z</time>
      </trkpt>
      <trkpt lat="43.63669" lon="3.72598">
        <ele>165.8</ele>
        <time>2022-10-07T14:35:15Z</time>
      </trkpt>
      <trkpt lat="43.63672" lon="3.72638">
        <ele>165.4</ele>
        <time>2022-10-07T14:35:25Z</time>
      </trkpt>
      <trkpt lat="43.63673" lon="3.72679">
        <ele>165.2</ele>
        <time>2022-10-07T14:35:35Z</time>
      </trkpt>
      <trkpt lat="43.63676" lon="3.72719">
        <ele>164.4</ele>
        <time>2022-10-07T14:35:45Z</time>
      </trkpt>
      <trkpt lat="43.63671" lon="3.72784">
        <ele>164.5</ele>
        <time>2022-10-07T14:35:55Z</time>
      </trkpt>
      <trkpt lat="43.63663" lon="3.72848">
        <ele>164.1</ele>
        <time>2022-10-07T14:36:05Z</time>
      </trkpt>
      <trkpt lat="43.63656" lon="3.72902">
        <ele>164.9</ele>
        <time>2022-10-07T14:36:15Z</time>
      </trkpt>
      <trkpt lat="43.63655" lon="3.7295">
        <ele>164.2</ele>
        <time>2022-10-07T14:36:25Z</time>
      </trkpt>
      <trkpt lat="43.63654" lon="3.73">
        <ele>164.8</ele>
        <time>2022-10-07T14:36:35Z</time>
      </trkpt>
      <trkpt lat="43.63648" lon="3.73055">
        <ele>164.4</ele>
        <time>2022-10-07T14:36:45Z</time>
      </trkpt>
      <trkpt lat="43.63638" lon="3.73098">
        <ele>168.1</ele>
        <time>2022-10-07T14:36:55Z</time>
      </trkpt>
      <trkpt lat="43.63633" lon="3.73135">
        <ele>169.3</ele>
        <time>2022-10-07T14:37:05Z</time>
      </trkpt>
      <trkpt lat="43.63631" lon="3.73204">
        <ele>166.2</ele>
        <time>2022-10-07T14:37:15Z</time>
      </trkpt>
      <trkpt lat="43.63631" lon="3.7327">
        <ele>168.9</ele>
        <time>2022-10-07T14:37:25Z</time>
      </trkpt>
      <trkpt lat="43.63641" lon="3.73351">
        <ele>165.5</ele>
        <time>2022-10-07T14:37:35Z</time>
      </trkpt>
      <trkpt lat="43.63651" lon="3.73404">
        <ele>168.6</ele>
        <time>2022-10-07T14:37:45Z</time>
      </trkpt>
      <trkpt lat="43.63659" lon="3.73467">
        <ele>169.6</ele>
        <time>2022-10-07T14:37:55Z</time>
      </trkpt>
      <trkpt lat="43.63667" lon="3.7352">
        <ele>169.9</ele>
        <time>2022-10-07T14:38:05Z</time>
      </trkpt>
      <trkpt lat="43.63677" lon="3.73587">
        <ele>167.1</ele>
        <time>2022-10-07T14:38:15Z</time>
      </trkpt>
      <trkpt lat="43.63685" lon="3.73647">
        <ele>170.1</ele>
        <time>2022-10-07T14:38:25Z</time>
      </trkpt>
      <trkpt lat="43.63695" lon="3.73721">
        <ele>164.9</ele>
        <time>2022-10-07T14:38:35Z</time>
      </trkpt>
      <trkpt lat="43.63704" lon="3.73789">
        <ele>163.9</ele>
        <time>2022-10-07T14:38:45Z</time>
      </trkpt>
      <trkpt lat="43.63712" lon="3.73857">
        <ele>162.4</ele>
        <time>2022-10-07T14:38:55Z</time>
      </trkpt>
      <trkpt lat="43.63713" lon="3.7391">
        <ele>162.3</ele>
        <time>2022-10-07T14:39:05Z</time>
      </trkpt>
      <trkpt lat="43.63722" lon="3.73977">
        <ele>159.4</ele>
        <time>2022-10-07T14:39:15Z</time>
      </trkpt>
      <trkpt lat="43.63717" lon="3.74051">
        <ele>161.9</ele>
        <time>2022-10-07T14:39:25Z</time>
      </trkpt>
      <trkpt lat="43.63715" lon="3.74127">
        <ele>161.1</ele>
        <time>2022-10-07T14:39:35Z</time>
      </trkpt>
      <trkpt lat="43.63718" lon="3.74168">
        <ele>162.7</ele>
        <time>2022-10-07T14:39:45Z</time>
      </trkpt>
      <trkpt lat="43.63733" lon="3.7423">
        <ele>163.2</ele>
        <time>2022-10-07T14:39:55Z</time>
      </trkpt>
      <trkpt lat="43.63742" lon="3.74262">
        <ele>164.1</ele>
        <time>2022-10-07T14:40:05Z</time>
      </trkpt>
      <trkpt lat="43.63749" lon="3.74339">
        <ele>161.8</ele>
        <time>2022-10-07T14:40:15Z</time>
      </trkpt>
      <trkpt lat="43.63759" lon="3.74379">
        <ele>164.2</ele>
        <time>2022-10-07T14:40:25Z</time>
      </trkpt>
      <trkpt lat="43.63775" lon="3.74398">
        <ele>162.4</ele>
        <time>2022-10-07T14:41:25Z</time>
      </trkpt>
      <trkpt lat="43.63816" lon="3.74395">
        <ele>160.1</ele>
        <time>2022-10-07T14:41:45Z</time>
      </trkpt>
      <trkpt lat="43.63873" lon="3.74381">
        <ele>156.7</ele>
        <time>2022-10-07T14:41:55Z</time>
      </trkpt>
      <trkpt lat="43.63904" lon="3.74388">
        <ele>155.5</ele>
        <time>2022-10-07T14:42:05Z</time>
      </trkpt>
      <trkpt lat="43.63902" lon="3.74449">
        <ele>155.1</ele>
        <time>2022-10-07T14:42:15Z</time>
      </trkpt>
      <trkpt lat="43.63908" lon="3.74509">
        <ele>154.2</ele>
        <time>2022-10-07T14:42:25Z</time>
      </trkpt>
      <trkpt lat="43.63922" lon="3.74568">
        <ele>154</ele>
        <time>2022-10-07T14:42:35Z</time>
      </trkpt>
      <trkpt lat="43.63933" lon="3.74625">
        <ele>153.2</ele>
        <time>2022-10-07T14:42:45Z</time>
      </trkpt>
      <trkpt lat="43.63942" lon="3.74683">
        <ele>153.2</ele>
        <time>2022-10-07T14:42:55Z</time>
      </trkpt>
      <trkpt lat="43.6395" lon="3.74738">
        <ele>153.4</ele>
        <time>2022-10-07T14:43:05Z</time>
      </trkpt>
      <trkpt lat="43.63958" lon="3.74791">
        <ele>153.8</ele>
        <time>2022-10-07T14:43:15Z</time>
      </trkpt>
      <trkpt lat="43.63966" lon="3.74829">
        <ele>153.6</ele>
        <time>2022-10-07T14:43:25Z</time>
      </trkpt>
      <trkpt lat="43.63968" lon="3.74878">
        <ele>154</ele>
        <time>2022-10-07T14:43:35Z</time>
      </trkpt>
      <trkpt lat="43.63987" lon="3.74921">
        <ele>152.9</ele>
        <time>2022-10-07T14:43:45Z</time>
      </trkpt>
      <trkpt lat="43.64016" lon="3.74973">
        <ele>151.9</ele>
        <time>2022-10-07T14:43:55Z</time>
      </trkpt>
      <trkpt lat="43.64063" lon="3.75016">
        <ele>149.2</ele>
        <time>2022-10-07T14:44:05Z</time>
      </trkpt>
      <trkpt lat="43.64104" lon="3.75096">
        <ele>145.4</ele>
        <time>2022-10-07T14:44:15Z</time>
      </trkpt>
      <trkpt lat="43.6414" lon="3.75173">
        <ele>144.1</ele>
        <time>2022-10-07T14:44:25Z</time>
      </trkpt>
      <trkpt lat="43.64182" lon="3.75246">
        <ele>141.8</ele>
        <time>2022-10-07T14:44:35Z</time>
      </trkpt>
      <trkpt lat="43.64218" lon="3.75321">
        <ele>139.3</ele>
        <time>2022-10-07T14:44:45Z</time>
      </trkpt>
      <trkpt lat="43.64241" lon="3.75402">
        <ele>138.3</ele>
        <time>2022-10-07T14:44:55Z</time>
      </trkpt>
      <trkpt lat="43.64254" lon="3.75483">
        <ele>137.2</ele>
        <time>2022-10-07T14:45:05Z</time>
      </trkpt>
      <trkpt lat="43.64274" lon="3.75494">
        <ele>138.1</ele>
        <time>2022-10-07T14:45:15Z</time>
      </trkpt>
      <trkpt lat="43.64289" lon="3.75503">
        <ele>138.4</ele>
        <time>2022-10-07T14:45:25Z</time>
      </trkpt>
      <trkpt lat="43.64313" lon="3.75524">
        <ele>138.7</ele>
        <time>2022-10-07T14:45:45Z</time>
      </trkpt>
      <trkpt lat="43.64341" lon="3.75547">
        <ele>139.6</ele>
        <time>2022-10-07T14:45:55Z</time>
      </trkpt>
      <trkpt lat="43.64371" lon="3.75557">
        <ele>140.7</ele>
        <time>2022-10-07T14:46:05Z</time>
      </trkpt>
      <trkpt lat="43.64399" lon="3.75572">
        <ele>142</ele>
        <time>2022-10-07T14:46:15Z</time>
      </trkpt>
      <trkpt lat="43.64429" lon="3.75586">
        <ele>142.4</ele>
        <time>2022-10-07T14:46:25Z</time>
      </trkpt>
      <trkpt lat="43.64459" lon="3.7561">
        <ele>142</ele>
        <time>2022-10-07T14:46:35Z</time>
      </trkpt>
      <trkpt lat="43.64488" lon="3.7564">
        <ele>141.5</ele>
        <time>2022-10-07T14:46:45Z</time>
      </trkpt>
      <trkpt lat="43.6452" lon="3.7567">
        <ele>141.7</ele>
        <time>2022-10-07T14:46:55Z</time>
      </trkpt>
      <trkpt lat="43.64526" lon="3.75724">
        <ele>141.9</ele>
        <time>2022-10-07T14:47:05Z</time>
      </trkpt>
      <trkpt lat="43.64538" lon="3.75772">
        <ele>142.4</ele>
        <time>2022-10-07T14:47:15Z</time>
      </trkpt>
      <trkpt lat="43.64558" lon="3.75808">
        <ele>144</ele>
        <time>2022-10-07T14:47:25Z</time>
      </trkpt>
      <trkpt lat="43.64572" lon="3.75855">
        <ele>143.7</ele>
        <time>2022-10-07T14:47:35Z</time>
      </trkpt>
      <trkpt lat="43.64577" lon="3.75909">
        <ele>143.8</ele>
        <time>2022-10-07T14:47:45Z</time>
      </trkpt>
      <trkpt lat="43.64583" lon="3.75976">
        <ele>142.9</ele>
        <time>2022-10-07T14:47:55Z</time>
      </trkpt>
      <trkpt lat="43.6459" lon="3.76049">
        <ele>141.2</ele>
        <time>2022-10-07T14:48:05Z</time>
      </trkpt>
      <trkpt lat="43.64597" lon="3.76126">
        <ele>141</ele>
        <time>2022-10-07T14:48:15Z</time>
      </trkpt>
      <trkpt lat="43.64603" lon="3.76199">
        <ele>141</ele>
        <time>2022-10-07T14:48:25Z</time>
      </trkpt>
      <trkpt lat="43.6461" lon="3.76271">
        <ele>141</ele>
        <time>2022-10-07T14:48:35Z</time>
      </trkpt>
      <trkpt lat="43.64616" lon="3.7634">
        <ele>141</ele>
        <time>2022-10-07T14:48:45Z</time>
      </trkpt>
      <trkpt lat="43.64623" lon="3.76394">
        <ele>141</ele>
        <time>2022-10-07T14:48:55Z</time>
      </trkpt>
      <trkpt lat="43.64616" lon="3.76452">
        <ele>140</ele>
        <time>2022-10-07T14:49:05Z</time>
      </trkpt>
      <trkpt lat="43.64602" lon="3.76511">
        <ele>139</ele>
        <time>2022-10-07T14:49:15Z</time>
      </trkpt>
      <trkpt lat="43.64591" lon="3.76561">
        <ele>138.5</ele>
        <time>2022-10-07T14:49:25Z</time>
      </trkpt>
      <trkpt lat="43.64587" lon="3.76609">
        <ele>135.9</ele>
        <time>2022-10-07T14:49:35Z</time>
      </trkpt>
      <trkpt lat="43.64618" lon="3.76639">
        <ele>133</ele>
        <time>2022-10-07T14:49:45Z</time>
      </trkpt>
      <trkpt lat="43.64667" lon="3.7665">
        <ele>135</ele>
        <time>2022-10-07T14:49:55Z</time>
      </trkpt>
      <trkpt lat="43.64675" lon="3.76673">
        <ele>135.9</ele>
        <time>2022-10-07T14:50:05Z</time>
      </trkpt>
      <trkpt lat="43.64669" lon="3.76714">
        <ele>135.3</ele>
        <time>2022-10-07T14:50:15Z</time>
      </trkpt>
      <trkpt lat="43.64662" lon="3.76762">
        <ele>134.3</ele>
        <time>2022-10-07T14:50:25Z</time>
      </trkpt>
      <trkpt lat="43.64669" lon="3.76813">
        <ele>134.1</ele>
        <time>2022-10-07T14:50:35Z</time>
      </trkpt>
      <trkpt lat="43.64666" lon="3.76873">
        <ele>134</ele>
        <time>2022-10-07T14:50:45Z</time>
      </trkpt>
      <trkpt lat="43.64671" lon="3.76927">
        <ele>134.8</ele>
        <time>2022-10-07T14:50:55Z</time>
      </trkpt>
      <trkpt lat="43.64676" lon="3.76968">
        <ele>135.7</ele>
        <time>2022-10-07T14:51:05Z</time>
      </trkpt>
      <trkpt lat="43.64683" lon="3.76998">
        <ele>136.4</ele>
        <time>2022-10-07T14:51:15Z</time>
      </trkpt>
      <trkpt lat="43.64689" lon="3.77033">
        <ele>138.1</ele>
        <time>2022-10-07T14:51:25Z</time>
      </trkpt>
      <trkpt lat="43.64698" lon="3.77062">
        <ele>139.5</ele>
        <time>2022-10-07T14:51:35Z</time>
      </trkpt>
      <trkpt lat="43.64703" lon="3.77091">
        <ele>140.5</ele>
        <time>2022-10-07T14:51:45Z</time>
      </trkpt>
      <trkpt lat="43.64664" lon="3.77089">
        <ele>134.7</ele>
        <time>2022-10-07T14:51:55Z</time>
      </trkpt>
      <trkpt lat="43.64647" lon="3.77118">
        <ele>132.7</ele>
        <time>2022-10-07T14:52:05Z</time>
      </trkpt>
      <trkpt lat="43.64647" lon="3.77156">
        <ele>131.3</ele>
        <time>2022-10-07T14:52:15Z</time>
      </trkpt>
      <trkpt lat="43.6466" lon="3.77223">
        <ele>128.2</ele>
        <time>2022-10-07T14:52:25Z</time>
      </trkpt>
      <trkpt lat="43.6468" lon="3.7732">
        <ele>120.1</ele>
        <time>2022-10-07T14:52:35Z</time>
      </trkpt>
      <trkpt lat="43.64689" lon="3.77417">
        <ele>113.4</ele>
        <time>2022-10-07T14:52:45Z</time>
      </trkpt>
      <trkpt lat="43.64694" lon="3.77466">
        <ele>109.3</ele>
        <time>2022-10-07T14:52:55Z</time>
      </trkpt>
      <trkpt lat="43.64704" lon="3.77517">
        <ele>107.6</ele>
        <time>2022-10-07T14:53:05Z</time>
      </trkpt>
      <trkpt lat="43.64713" lon="3.77564">
        <ele>105.3</ele>
        <time>2022-10-07T14:53:15Z</time>
      </trkpt>
      <trkpt lat="43.64731" lon="3.77606">
        <ele>104.2</ele>
        <time>2022-10-07T14:53:25Z</time>
      </trkpt>
      <trkpt lat="43.64751" lon="3.77654">
        <ele>104.1</ele>
        <time>2022-10-07T14:53:35Z</time>
      </trkpt>
      <trkpt lat="43.64777" lon="3.77693">
        <ele>104.9</ele>
        <time>2022-10-07T14:53:45Z</time>
      </trkpt>
      <trkpt lat="43.64809" lon="3.77712">
        <ele>105.5</ele>
        <time>2022-10-07T14:53:55Z</time>
      </trkpt>
      <trkpt lat="43.6483" lon="3.7776">
        <ele>109.6</ele>
        <time>2022-10-07T14:54:25Z</time>
      </trkpt>
      <trkpt lat="43.6484" lon="3.77789">
        <ele>113.7</ele>
        <time>2022-10-07T14:54:45Z</time>
      </trkpt>
      <trkpt lat="43.64848" lon="3.77816">
        <ele>114.1</ele>
        <time>2022-10-07T14:54:55Z</time>
      </trkpt>
      <trkpt lat="43.64867" lon="3.77885">
        <ele>103.6</ele>
        <time>2022-10-07T14:55:05Z</time>
      </trkpt>
      <trkpt lat="43.64894" lon="3.77971">
        <ele>98</ele>
        <time>2022-10-07T14:55:15Z</time>
      </trkpt>
      <trkpt lat="43.6492" lon="3.78067">
        <ele>95.1</ele>
        <time>2022-10-07T14:55:25Z</time>
      </trkpt>
      <trkpt lat="43.64944" lon="3.78153">
        <ele>96.6</ele>
        <time>2022-10-07T14:55:35Z</time>
      </trkpt>
      <trkpt lat="43.64985" lon="3.78245">
        <ele>89</ele>
        <time>2022-10-07T14:55:45Z</time>
      </trkpt>
      <trkpt lat="43.65018" lon="3.783">
        <ele>85.1</ele>
        <time>2022-10-07T14:55:55Z</time>
      </trkpt>
      <trkpt lat="43.65059" lon="3.78376">
        <ele>80.4</ele>
        <time>2022-10-07T14:56:05Z</time>
      </trkpt>
      <trkpt lat="43.65105" lon="3.7845">
        <ele>76.1</ele>
        <time>2022-10-07T14:56:15Z</time>
      </trkpt>
      <trkpt lat="43.65128" lon="3.78527">
        <ele>72.8</ele>
        <time>2022-10-07T14:56:25Z</time>
      </trkpt>
      <trkpt lat="43.65135" lon="3.78607">
        <ele>75.4</ele>
        <time>2022-10-07T14:56:35Z</time>
      </trkpt>
      <trkpt lat="43.65134" lon="3.78679">
        <ele>72.8</ele>
        <time>2022-10-07T14:56:45Z</time>
      </trkpt>
      <trkpt lat="43.6514" lon="3.78778">
        <ele>64.9</ele>
        <time>2022-10-07T14:56:55Z</time>
      </trkpt>
      <trkpt lat="43.65144" lon="3.78806">
        <ele>62.8</ele>
        <time>2022-10-07T14:57:05Z</time>
      </trkpt>
      <trkpt lat="43.65132" lon="3.78814">
        <ele>63.3</ele>
        <time>2022-10-07T14:57:15Z</time>
      </trkpt>
      <trkpt lat="43.65102" lon="3.78837">
        <ele>62.9</ele>
        <time>2022-10-07T14:57:25Z</time>
      </trkpt>
      <trkpt lat="43.65071" lon="3.78875">
        <ele>62.2</ele>
        <time>2022-10-07T14:57:35Z</time>
      </trkpt>
      <trkpt lat="43.65048" lon="3.78915">
        <ele>60.3</ele>
        <time>2022-10-07T14:57:45Z</time>
      </trkpt>
      <trkpt lat="43.65027" lon="3.78938">
        <ele>60</ele>
        <time>2022-10-07T14:57:55Z</time>
      </trkpt>
      <trkpt lat="43.64995" lon="3.78961">
        <ele>60.7</ele>
        <time>2022-10-07T14:58:05Z</time>
      </trkpt>
      <trkpt lat="43.64963" lon="3.78983">
        <ele>60.9</ele>
        <time>2022-10-07T14:58:15Z</time>
      </trkpt>
      <trkpt lat="43.64928" lon="3.79008">
        <ele>60.8</ele>
        <time>2022-10-07T14:58:25Z</time>
      </trkpt>
      <trkpt lat="43.64895" lon="3.79027">
        <ele>61.2</ele>
        <time>2022-10-07T14:58:35Z</time>
      </trkpt>
      <trkpt lat="43.64861" lon="3.79059">
        <ele>59.4</ele>
        <time>2022-10-07T14:58:45Z</time>
      </trkpt>
      <trkpt lat="43.64832" lon="3.79093">
        <ele>58.8</ele>
        <time>2022-10-07T14:58:55Z</time>
      </trkpt>
      <trkpt lat="43.648" lon="3.7912">
        <ele>61</ele>
        <time>2022-10-07T14:59:05Z</time>
      </trkpt>
      <trkpt lat="43.64771" lon="3.79135">
        <ele>63.8</ele>
        <time>2022-10-07T14:59:15Z</time>
      </trkpt>
      <trkpt lat="43.64741" lon="3.7916">
        <ele>64.1</ele>
        <time>2022-10-07T14:59:25Z</time>
      </trkpt>
      <trkpt lat="43.64712" lon="3.79177">
        <ele>66.4</ele>
        <time>2022-10-07T14:59:35Z</time>
      </trkpt>
      <trkpt lat="43.64705" lon="3.79203">
        <ele>62</ele>
        <time>2022-10-07T14:59:45Z</time>
      </trkpt>
      <trkpt lat="43.64703" lon="3.79252">
        <ele>55.6</ele>
        <time>2022-10-07T14:59:55Z</time>
      </trkpt>
      <trkpt lat="43.64677" lon="3.79271">
        <ele>56</ele>
        <time>2022-10-07T15:00:05Z</time>
      </trkpt>
      <trkpt lat="43.64666" lon="3.79293">
        <ele>55.1</ele>
        <time>2022-10-07T15:00:15Z</time>
      </trkpt>
      <trkpt lat="43.64658" lon="3.79315">
        <ele>55</ele>
        <time>2022-10-07T15:00:25Z</time>
      </trkpt>
      <trkpt lat="43.64645" lon="3.79352">
        <ele>54.9</ele>
        <time>2022-10-07T15:00:35Z</time>
      </trkpt>
      <trkpt lat="43.6464" lon="3.79377">
        <ele>54.4</ele>
        <time>2022-10-07T15:01:25Z</time>
      </trkpt>
      <trkpt lat="43.64626" lon="3.79409">
        <ele>54.3</ele>
        <time>2022-10-07T15:02:45Z</time>
      </trkpt>
      <trkpt lat="43.6461" lon="3.79427">
        <ele>53.8</ele>
        <time>2022-10-07T15:03:05Z</time>
      </trkpt>
      <trkpt lat="43.646" lon="3.79452">
        <ele>54</ele>
        <time>2022-10-07T15:03:15Z</time>
      </trkpt>
      <trkpt lat="43.64598" lon="3.79489">
        <ele>53.5</ele>
        <time>2022-10-07T15:03:25Z</time>
      </trkpt>
      <trkpt lat="43.64579" lon="3.79532">
        <ele>53.8</ele>
        <time>2022-10-07T15:03:35Z</time>
      </trkpt>
      <trkpt lat="43.64567" lon="3.79575">
        <ele>53.4</ele>
        <time>2022-10-07T15:03:45Z</time>
      </trkpt>
      <trkpt lat="43.64555" lon="3.79615">
        <ele>54</ele>
        <time>2022-10-07T15:03:55Z</time>
      </trkpt>
      <trkpt lat="43.64543" lon="3.79647">
        <ele>53.4</ele>
        <time>2022-10-07T15:04:05Z</time>
      </trkpt>
      <trkpt lat="43.64524" lon="3.79681">
        <ele>53.9</ele>
        <time>2022-10-07T15:04:15Z</time>
      </trkpt>
      <trkpt lat="43.64505" lon="3.79725">
        <ele>53.4</ele>
        <time>2022-10-07T15:04:25Z</time>
      </trkpt>
      <trkpt lat="43.64479" lon="3.79754">
        <ele>52.8</ele>
        <time>2022-10-07T15:04:35Z</time>
      </trkpt>
      <trkpt lat="43.64463" lon="3.79783">
        <ele>54.5</ele>
        <time>2022-10-07T15:04:45Z</time>
      </trkpt>
      <trkpt lat="43.64452" lon="3.79817">
        <ele>55</ele>
        <time>2022-10-07T15:04:55Z</time>
      </trkpt>
      <trkpt lat="43.64447" lon="3.79856">
        <ele>55</ele>
        <time>2022-10-07T15:05:05Z</time>
      </trkpt>
      <trkpt lat="43.64469" lon="3.79888">
        <ele>55.9</ele>
        <time>2022-10-07T15:05:15Z</time>
      </trkpt>
      <trkpt lat="43.64492" lon="3.79916">
        <ele>56</ele>
        <time>2022-10-07T15:05:25Z</time>
      </trkpt>
      <trkpt lat="43.64515" lon="3.79943">
        <ele>57</ele>
        <time>2022-10-07T15:05:35Z</time>
      </trkpt>
      <trkpt lat="43.64538" lon="3.79967">
        <ele>57.9</ele>
        <time>2022-10-07T15:05:45Z</time>
      </trkpt>
      <trkpt lat="43.64559" lon="3.79992">
        <ele>58.8</ele>
        <time>2022-10-07T15:05:55Z</time>
      </trkpt>
      <trkpt lat="43.64558" lon="3.80025">
        <ele>60</ele>
        <time>2022-10-07T15:06:05Z</time>
      </trkpt>
      <trkpt lat="43.64542" lon="3.80058">
        <ele>60</ele>
        <time>2022-10-07T15:06:15Z</time>
      </trkpt>
      <trkpt lat="43.64552" lon="3.80085">
        <ele>60.8</ele>
        <time>2022-10-07T15:06:25Z</time>
      </trkpt>
      <trkpt lat="43.6458" lon="3.80102">
        <ele>60.8</ele>
        <time>2022-10-07T15:06:35Z</time>
      </trkpt>
      <trkpt lat="43.64608" lon="3.8012">
        <ele>60.9</ele>
        <time>2022-10-07T15:06:45Z</time>
      </trkpt>
      <trkpt lat="43.64636" lon="3.8013">
        <ele>62.5</ele>
        <time>2022-10-07T15:06:55Z</time>
      </trkpt>
      <trkpt lat="43.64672" lon="3.8013">
        <ele>62.2</ele>
        <time>2022-10-07T15:07:05Z</time>
      </trkpt>
      <trkpt lat="43.6469" lon="3.80134">
        <ele>61.5</ele>
        <time>2022-10-07T15:07:15Z</time>
      </trkpt>
      <trkpt lat="43.64682" lon="3.80181">
        <ele>60.6</ele>
        <time>2022-10-07T15:07:25Z</time>
      </trkpt>
      <trkpt lat="43.64675" lon="3.80243">
        <ele>60.3</ele>
        <time>2022-10-07T15:07:35Z</time>
      </trkpt>
      <trkpt lat="43.6467" lon="3.80317">
        <ele>60.1</ele>
        <time>2022-10-07T15:07:45Z</time>
      </trkpt>
      <trkpt lat="43.64665" lon="3.80387">
        <ele>59.9</ele>
        <time>2022-10-07T15:07:55Z</time>
      </trkpt>
      <trkpt lat="43.64665" lon="3.80453">
        <ele>60</ele>
        <time>2022-10-07T15:08:05Z</time>
      </trkpt>
      <trkpt lat="43.64673" lon="3.80515">
        <ele>60.2</ele>
        <time>2022-10-07T15:08:15Z</time>
      </trkpt>
      <trkpt lat="43.64679" lon="3.80577">
        <ele>60.9</ele>
        <time>2022-10-07T15:08:25Z</time>
      </trkpt>
      <trkpt lat="43.64679" lon="3.80634">
        <ele>61.5</ele>
        <time>2022-10-07T15:08:35Z</time>
      </trkpt>
      <trkpt lat="43.64677" lon="3.80688">
        <ele>61.4</ele>
        <time>2022-10-07T15:08:45Z</time>
      </trkpt>
      <trkpt lat="43.64666" lon="3.80746">
        <ele>61</ele>
        <time>2022-10-07T15:08:55Z</time>
      </trkpt>
      <trkpt lat="43.64648" lon="3.80799">
        <ele>62.1</ele>
        <time>2022-10-07T15:09:05Z</time>
      </trkpt>
      <trkpt lat="43.64633" lon="3.80854">
        <ele>61.8</ele>
        <time>2022-10-07T15:09:15Z</time>
      </trkpt>
      <trkpt lat="43.64619" lon="3.80907">
        <ele>61.1</ele>
        <time>2022-10-07T15:09:25Z</time>
      </trkpt>
      <trkpt lat="43.64608" lon="3.80959">
        <ele>62.5</ele>
        <time>2022-10-07T15:09:35Z</time>
      </trkpt>
      <trkpt lat="43.64591" lon="3.81017">
        <ele>62.7</ele>
        <time>2022-10-07T15:09:45Z</time>
      </trkpt>
      <trkpt lat="43.64594" lon="3.81072">
        <ele>63.6</ele>
        <time>2022-10-07T15:09:55Z</time>
      </trkpt>
      <trkpt lat="43.64589" lon="3.81131">
        <ele>63.8</ele>
        <time>2022-10-07T15:10:05Z</time>
      </trkpt>
      <trkpt lat="43.6458" lon="3.81186">
        <ele>64.7</ele>
        <time>2022-10-07T15:10:15Z</time>
      </trkpt>
      <trkpt lat="43.64568" lon="3.81215">
        <ele>65.4</ele>
        <time>2022-10-07T15:10:25Z</time>
      </trkpt>
      <trkpt lat="43.64556" lon="3.81249">
        <ele>66</ele>
        <time>2022-10-07T15:10:35Z</time>
      </trkpt>
      <trkpt lat="43.64544" lon="3.81283">
        <ele>67.6</ele>
        <time>2022-10-07T15:10:45Z</time>
      </trkpt>
      <trkpt lat="43.64531" lon="3.81316">
        <ele>69.3</ele>
        <time>2022-10-07T15:10:55Z</time>
      </trkpt>
      <trkpt lat="43.64525" lon="3.81347">
        <ele>70.6</ele>
        <time>2022-10-07T15:11:05Z</time>
      </trkpt>
      <trkpt lat="43.64519" lon="3.81375">
        <ele>71.8</ele>
        <time>2022-10-07T15:11:15Z</time>
      </trkpt>
      <trkpt lat="43.64516" lon="3.81402">
        <ele>73.4</ele>
        <time>2022-10-07T15:11:25Z</time>
      </trkpt>
      <trkpt lat="43.64511" lon="3.81429">
        <ele>75</ele>
        <time>2022-10-07T15:11:35Z</time>
      </trkpt>
      <trkpt lat="43.64502" lon="3.81453">
        <ele>76.2</ele>
        <time>2022-10-07T15:11:45Z</time>
      </trkpt>
      <trkpt lat="43.64492" lon="3.81474">
        <ele>78</ele>
        <time>2022-10-07T15:11:55Z</time>
      </trkpt>
      <trkpt lat="43.64483" lon="3.81491">
        <ele>79.8</ele>
        <time>2022-10-07T15:12:05Z</time>
      </trkpt>
      <trkpt lat="43.64474" lon="3.81507">
        <ele>81.1</ele>
        <time>2022-10-07T15:12:15Z</time>
      </trkpt>
      <trkpt lat="43.64465" lon="3.81521">
        <ele>83.1</ele>
        <time>2022-10-07T15:12:25Z</time>
      </trkpt>
      <trkpt lat="43.64459" lon="3.81535">
        <ele>84.7</ele>
        <time>2022-10-07T15:12:35Z</time>
      </trkpt>
      <trkpt lat="43.64456" lon="3.81552">
        <ele>85.6</ele>
        <time>2022-10-07T15:12:45Z</time>
      </trkpt>
      <trkpt lat="43.64457" lon="3.81569">
        <ele>86.3</ele>
        <time>2022-10-07T15:12:55Z</time>
      </trkpt>
      <trkpt lat="43.64463" lon="3.81586">
        <ele>87</ele>
        <time>2022-10-07T15:13:05Z</time>
      </trkpt>
      <trkpt lat="43.64471" lon="3.81603">
        <ele>88.3</ele>
        <time>2022-10-07T15:13:15Z</time>
      </trkpt>
      <trkpt lat="43.64476" lon="3.81623">
        <ele>89.7</ele>
        <time>2022-10-07T15:13:25Z</time>
      </trkpt>
      <trkpt lat="43.64479" lon="3.8164">
        <ele>91.1</ele>
        <time>2022-10-07T15:13:35Z</time>
      </trkpt>
      <trkpt lat="43.64484" lon="3.81657">
        <ele>92.3</ele>
        <time>2022-10-07T15:13:45Z</time>
      </trkpt>
      <trkpt lat="43.64487" lon="3.81675">
        <ele>93.9</ele>
        <time>2022-10-07T15:13:55Z</time>
      </trkpt>
      <trkpt lat="43.64489" lon="3.81692">
        <ele>95.7</ele>
        <time>2022-10-07T15:14:05Z</time>
      </trkpt>
      <trkpt lat="43.64493" lon="3.81708">
        <ele>96.2</ele>
        <time>2022-10-07T15:14:15Z</time>
      </trkpt>
      <trkpt lat="43.64497" lon="3.81729">
        <ele>96.8</ele>
        <time>2022-10-07T15:14:25Z</time>
      </trkpt>
      <trkpt lat="43.64494" lon="3.81753">
        <ele>98.1</ele>
        <time>2022-10-07T15:14:35Z</time>
      </trkpt>
      <trkpt lat="43.6449" lon="3.81775">
        <ele>99.1</ele>
        <time>2022-10-07T15:14:45Z</time>
      </trkpt>
      <trkpt lat="43.64486" lon="3.818">
        <ele>101.2</ele>
        <time>2022-10-07T15:14:55Z</time>
      </trkpt>
      <trkpt lat="43.64482" lon="3.81826">
        <ele>103.1</ele>
        <time>2022-10-07T15:15:05Z</time>
      </trkpt>
      <trkpt lat="43.64478" lon="3.81848">
        <ele>103.9</ele>
        <time>2022-10-07T15:15:15Z</time>
      </trkpt>
      <trkpt lat="43.64476" lon="3.81869">
        <ele>104.4</ele>
        <time>2022-10-07T15:15:25Z</time>
      </trkpt>
      <trkpt lat="43.64475" lon="3.81894">
        <ele>104.8</ele>
        <time>2022-10-07T15:15:35Z</time>
      </trkpt>
      <trkpt lat="43.64463" lon="3.81924">
        <ele>104</ele>
        <time>2022-10-07T15:15:45Z</time>
      </trkpt>
      <trkpt lat="43.64443" lon="3.8196">
        <ele>103.1</ele>
        <time>2022-10-07T15:15:55Z</time>
      </trkpt>
      <trkpt lat="43.64423" lon="3.81994">
        <ele>102.7</ele>
        <time>2022-10-07T15:16:05Z</time>
      </trkpt>
      <trkpt lat="43.64404" lon="3.82025">
        <ele>103</ele>
        <time>2022-10-07T15:16:15Z</time>
      </trkpt>
      <trkpt lat="43.64383" lon="3.82061">
        <ele>102.4</ele>
        <time>2022-10-07T15:16:25Z</time>
      </trkpt>
      <trkpt lat="43.64359" lon="3.82104">
        <ele>101.7</ele>
        <time>2022-10-07T15:16:35Z</time>
      </trkpt>
      <trkpt lat="43.64348" lon="3.82155">
        <ele>101.1</ele>
        <time>2022-10-07T15:16:45Z</time>
      </trkpt>
      <trkpt lat="43.64393" lon="3.82193">
        <ele>98</ele>
        <time>2022-10-07T15:16:55Z</time>
      </trkpt>
      <trkpt lat="43.64399" lon="3.82249">
        <ele>98</ele>
        <time>2022-10-07T15:17:05Z</time>
      </trkpt>
      <trkpt lat="43.64365" lon="3.82283">
        <ele>97.9</ele>
        <time>2022-10-07T15:17:15Z</time>
      </trkpt>
      <trkpt lat="43.64346" lon="3.82349">
        <ele>96.7</ele>
        <time>2022-10-07T15:17:25Z</time>
      </trkpt>
      <trkpt lat="43.64302" lon="3.82385">
        <ele>96.4</ele>
        <time>2022-10-07T15:17:35Z</time>
      </trkpt>
      <trkpt lat="43.64272" lon="3.82428">
        <ele>95.7</ele>
        <time>2022-10-07T15:17:45Z</time>
      </trkpt>
      <trkpt lat="43.64248" lon="3.82485">
        <ele>94.8</ele>
        <time>2022-10-07T15:17:55Z</time>
      </trkpt>
      <trkpt lat="43.64222" lon="3.82541">
        <ele>94.1</ele>
        <time>2022-10-07T15:18:05Z</time>
      </trkpt>
      <trkpt lat="43.64193" lon="3.82592">
        <ele>92.1</ele>
        <time>2022-10-07T15:18:15Z</time>
      </trkpt>
      <trkpt lat="43.6416" lon="3.82638">
        <ele>90.3</ele>
        <time>2022-10-07T15:18:25Z</time>
      </trkpt>
      <trkpt lat="43.64122" lon="3.82682">
        <ele>88.5</ele>
        <time>2022-10-07T15:18:35Z</time>
      </trkpt>
      <trkpt lat="43.6408" lon="3.82724">
        <ele>85.9</ele>
        <time>2022-10-07T15:18:45Z</time>
      </trkpt>
      <trkpt lat="43.64032" lon="3.82766">
        <ele>83.9</ele>
        <time>2022-10-07T15:18:55Z</time>
      </trkpt>
      <trkpt lat="43.63999" lon="3.82792">
        <ele>82.4</ele>
        <time>2022-10-07T15:19:05Z</time>
      </trkpt>
      <trkpt lat="43.63958" lon="3.82807">
        <ele>79.5</ele>
        <time>2022-10-07T15:19:15Z</time>
      </trkpt>
      <trkpt lat="43.63928" lon="3.8283">
        <ele>78.5</ele>
        <time>2022-10-07T15:19:35Z</time>
      </trkpt>
      <trkpt lat="43.63906" lon="3.82876">
        <ele>77.2</ele>
        <time>2022-10-07T15:19:55Z</time>
      </trkpt>
      <trkpt lat="43.63878" lon="3.82934">
        <ele>75.8</ele>
        <time>2022-10-07T15:20:05Z</time>
      </trkpt>
      <trkpt lat="43.63833" lon="3.82992">
        <ele>74</ele>
        <time>2022-10-07T15:20:15Z</time>
      </trkpt>
      <trkpt lat="43.63787" lon="3.83042">
        <ele>73.2</ele>
        <time>2022-10-07T15:20:25Z</time>
      </trkpt>
      <trkpt lat="43.63744" lon="3.83081">
        <ele>72.9</ele>
        <time>2022-10-07T15:20:35Z</time>
      </trkpt>
      <trkpt lat="43.6373" lon="3.83095">
        <ele>73.4</ele>
        <time>2022-10-07T15:20:45Z</time>
      </trkpt>
      <trkpt lat="43.6369" lon="3.83111">
        <ele>72.8</ele>
        <time>2022-10-07T15:20:55Z</time>
      </trkpt>
      <trkpt lat="43.63644" lon="3.83133">
        <ele>71</ele>
        <time>2022-10-07T15:21:05Z</time>
      </trkpt>
      <trkpt lat="43.636" lon="3.83159">
        <ele>71.3</ele>
        <time>2022-10-07T15:21:15Z</time>
      </trkpt>
      <trkpt lat="43.63569" lon="3.83186">
        <ele>70.2</ele>
        <time>2022-10-07T15:21:25Z</time>
      </trkpt>
      <trkpt lat="43.63527" lon="3.8323">
        <ele>69.9</ele>
        <time>2022-10-07T15:21:35Z</time>
      </trkpt>
      <trkpt lat="43.63486" lon="3.83277">
        <ele>69</ele>
        <time>2022-10-07T15:21:45Z</time>
      </trkpt>
      <trkpt lat="43.63451" lon="3.83315">
        <ele>68.2</ele>
        <time>2022-10-07T15:21:55Z</time>
      </trkpt>
      <trkpt lat="43.63428" lon="3.83352">
        <ele>68</ele>
        <time>2022-10-07T15:22:05Z</time>
      </trkpt>
      <trkpt lat="43.63419" lon="3.83379">
        <ele>68</ele>
        <time>2022-10-07T15:22:15Z</time>
      </trkpt>
      <trkpt lat="43.63396" lon="3.83435">
        <ele>65.6</ele>
        <time>2022-10-07T15:22:25Z</time>
      </trkpt>
      <trkpt lat="43.6337" lon="3.83494">
        <ele>63.1</ele>
        <time>2022-10-07T15:22:35Z</time>
      </trkpt>
      <trkpt lat="43.63336" lon="3.83526">
        <ele>63</ele>
        <time>2022-10-07T15:22:45Z</time>
      </trkpt>
      <trkpt lat="43.63303" lon="3.83542">
        <ele>61.5</ele>
        <time>2022-10-07T15:22:55Z</time>
      </trkpt>
      <trkpt lat="43.63276" lon="3.83593">
        <ele>61.8</ele>
        <time>2022-10-07T15:23:05Z</time>
      </trkpt>
      <trkpt lat="43.63243" lon="3.8366">
        <ele>59.7</ele>
        <time>2022-10-07T15:23:15Z</time>
      </trkpt>
      <trkpt lat="43.63225" lon="3.83711">
        <ele>61.2</ele>
        <time>2022-10-07T15:23:25Z</time>
      </trkpt>
      <trkpt lat="43.63199" lon="3.83741">
        <ele>61.9</ele>
        <time>2022-10-07T15:23:35Z</time>
      </trkpt>
      <trkpt lat="43.63181" lon="3.83768">
        <ele>62</ele>
        <time>2022-10-07T15:23:45Z</time>
      </trkpt>
      <trkpt lat="43.63152" lon="3.83779">
        <ele>62.8</ele>
        <time>2022-10-07T15:23:55Z</time>
      </trkpt>
      <trkpt lat="43.63125" lon="3.83804">
        <ele>61.6</ele>
        <time>2022-10-07T15:24:05Z</time>
      </trkpt>
      <trkpt lat="43.63104" lon="3.8384">
        <ele>60.7</ele>
        <time>2022-10-07T15:24:15Z</time>
      </trkpt>
      <trkpt lat="43.63084" lon="3.83888">
        <ele>59.1</ele>
        <time>2022-10-07T15:24:25Z</time>
      </trkpt>
      <trkpt lat="43.63063" lon="3.83951">
        <ele>57.6</ele>
        <time>2022-10-07T15:24:35Z</time>
      </trkpt>
      <trkpt lat="43.63074" lon="3.84006">
        <ele>57</ele>
        <time>2022-10-07T15:24:45Z</time>
      </trkpt>
      <trkpt lat="43.63068" lon="3.84055">
        <ele>57</ele>
        <time>2022-10-07T15:24:55Z</time>
      </trkpt>
      <trkpt lat="43.63057" lon="3.84109">
        <ele>56</ele>
        <time>2022-10-07T15:25:05Z</time>
      </trkpt>
      <trkpt lat="43.63038" lon="3.84151">
        <ele>54.6</ele>
        <time>2022-10-07T15:25:15Z</time>
      </trkpt>
      <trkpt lat="43.63021" lon="3.84154">
        <ele>54.5</ele>
        <time>2022-10-07T15:25:25Z</time>
      </trkpt>
      <trkpt lat="43.62973" lon="3.84151">
        <ele>55</ele>
        <time>2022-10-07T15:25:45Z</time>
      </trkpt>
      <trkpt lat="43.62924" lon="3.84133">
        <ele>55.2</ele>
        <time>2022-10-07T15:25:55Z</time>
      </trkpt>
      <trkpt lat="43.62878" lon="3.841">
        <ele>56.4</ele>
        <time>2022-10-07T15:26:05Z</time>
      </trkpt>
      <trkpt lat="43.62838" lon="3.84066">
        <ele>57</ele>
        <time>2022-10-07T15:26:15Z</time>
      </trkpt>
      <trkpt lat="43.62798" lon="3.84024">
        <ele>59.3</ele>
        <time>2022-10-07T15:26:25Z</time>
      </trkpt>
      <trkpt lat="43.62762" lon="3.83981">
        <ele>60.5</ele>
        <time>2022-10-07T15:26:35Z</time>
      </trkpt>
      <trkpt lat="43.6273" lon="3.83936">
        <ele>61.6</ele>
        <time>2022-10-07T15:26:45Z</time>
      </trkpt>
      <trkpt lat="43.62702" lon="3.83886">
        <ele>63.1</ele>
        <time>2022-10-07T15:26:55Z</time>
      </trkpt>
      <trkpt lat="43.62683" lon="3.8384">
        <ele>65.1</ele>
        <time>2022-10-07T15:27:05Z</time>
      </trkpt>
      <trkpt lat="43.62667" lon="3.83801">
        <ele>67.3</ele>
        <time>2022-10-07T15:27:15Z</time>
      </trkpt>
      <trkpt lat="43.62646" lon="3.83769">
        <ele>68.8</ele>
        <time>2022-10-07T15:27:25Z</time>
      </trkpt>
      <trkpt lat="43.62624" lon="3.8374">
        <ele>69.2</ele>
        <time>2022-10-07T15:27:35Z</time>
      </trkpt>
      <trkpt lat="43.62605" lon="3.83715">
        <ele>70.5</ele>
        <time>2022-10-07T15:27:45Z</time>
      </trkpt>
      <trkpt lat="43.62584" lon="3.83684">
        <ele>71.7</ele>
        <time>2022-10-07T15:27:55Z</time>
      </trkpt>
      <trkpt lat="43.6258" lon="3.83643">
        <ele>73.5</ele>
        <time>2022-10-07T15:28:05Z</time>
      </trkpt>
      <trkpt lat="43.62574" lon="3.83601">
        <ele>73.5</ele>
        <time>2022-10-07T15:28:15Z</time>
      </trkpt>
      <trkpt lat="43.62543" lon="3.83565">
        <ele>73.5</ele>
        <time>2022-10-07T15:28:25Z</time>
      </trkpt>
      <trkpt lat="43.62514" lon="3.83517">
        <ele>73.6</ele>
        <time>2022-10-07T15:28:35Z</time>
      </trkpt>
      <trkpt lat="43.62499" lon="3.83458">
        <ele>74.4</ele>
        <time>2022-10-07T15:28:45Z</time>
      </trkpt>
      <trkpt lat="43.625" lon="3.83426">
        <ele>74</ele>
        <time>2022-10-07T15:28:55Z</time>
      </trkpt>
      <trkpt lat="43.62468" lon="3.8342">
        <ele>74.6</ele>
        <time>2022-10-07T15:29:05Z</time>
      </trkpt>
      <trkpt lat="43.62434" lon="3.83435">
        <ele>71.8</ele>
        <time>2022-10-07T15:29:15Z</time>
      </trkpt>
      <trkpt lat="43.62395" lon="3.83448">
        <ele>75.1</ele>
        <time>2022-10-07T15:29:25Z</time>
      </trkpt>
      <trkpt lat="43.62347" lon="3.83437">
        <ele>75.1</ele>
        <time>2022-10-07T15:29:35Z</time>
      </trkpt>
      <trkpt lat="43.62304" lon="3.83465">
        <ele>75.9</ele>
        <time>2022-10-07T15:29:45Z</time>
      </trkpt>
      <trkpt lat="43.62278" lon="3.83519">
        <ele>76.3</ele>
        <time>2022-10-07T15:29:55Z</time>
      </trkpt>
      <trkpt lat="43.62238" lon="3.83511">
        <ele>76</ele>
        <time>2022-10-07T15:30:05Z</time>
      </trkpt>
      <trkpt lat="43.62207" lon="3.8348">
        <ele>76</ele>
        <time>2022-10-07T15:30:15Z</time>
      </trkpt>
      <trkpt lat="43.62165" lon="3.83442">
        <ele>75</ele>
        <time>2022-10-07T15:30:25Z</time>
      </trkpt>
      <trkpt lat="43.62115" lon="3.83395">
        <ele>75</ele>
        <time>2022-10-07T15:30:35Z</time>
      </trkpt>
      <trkpt lat="43.62067" lon="3.8334">
        <ele>74.2</ele>
        <time>2022-10-07T15:30:45Z</time>
      </trkpt>
      <trkpt lat="43.62021" lon="3.83285">
        <ele>74.1</ele>
        <time>2022-10-07T15:30:55Z</time>
      </trkpt>
      <trkpt lat="43.61984" lon="3.83245">
        <ele>73.5</ele>
        <time>2022-10-07T15:31:05Z</time>
      </trkpt>
      <trkpt lat="43.61937" lon="3.83257">
        <ele>73.2</ele>
        <time>2022-10-07T15:31:15Z</time>
      </trkpt>
      <trkpt lat="43.61882" lon="3.83228">
        <ele>72.4</ele>
        <time>2022-10-07T15:31:25Z</time>
      </trkpt>
      <trkpt lat="43.61829" lon="3.83193">
        <ele>70.9</ele>
        <time>2022-10-07T15:31:35Z</time>
      </trkpt>
      <trkpt lat="43.61773" lon="3.83156">
        <ele>70</ele>
        <time>2022-10-07T15:31:45Z</time>
      </trkpt>
      <trkpt lat="43.61718" lon="3.83116">
        <ele>69.2</ele>
        <time>2022-10-07T15:31:55Z</time>
      </trkpt>
      <trkpt lat="43.61668" lon="3.83066">
        <ele>69</ele>
        <time>2022-10-07T15:32:05Z</time>
      </trkpt>
      <trkpt lat="43.61607" lon="3.83021">
        <ele>66.9</ele>
        <time>2022-10-07T15:32:15Z</time>
      </trkpt>
      <trkpt lat="43.61548" lon="3.82976">
        <ele>65.1</ele>
        <time>2022-10-07T15:32:25Z</time>
      </trkpt>
      <trkpt lat="43.61488" lon="3.82929">
        <ele>63.1</ele>
        <time>2022-10-07T15:32:35Z</time>
      </trkpt>
      <trkpt lat="43.61464" lon="3.829">
        <ele>62.4</ele>
        <time>2022-10-07T15:32:45Z</time>
      </trkpt>
      <trkpt lat="43.61433" lon="3.82886">
        <ele>61.1</ele>
        <time>2022-10-07T15:32:55Z</time>
      </trkpt>
      <trkpt lat="43.61392" lon="3.82903">
        <ele>59.6</ele>
        <time>2022-10-07T15:33:05Z</time>
      </trkpt>
      <trkpt lat="43.61353" lon="3.82926">
        <ele>58.7</ele>
        <time>2022-10-07T15:33:15Z</time>
      </trkpt>
      <trkpt lat="43.61305" lon="3.8291">
        <ele>57</ele>
        <time>2022-10-07T15:33:25Z</time>
      </trkpt>
      <trkpt lat="43.61258" lon="3.82942">
        <ele>57.3</ele>
        <time>2022-10-07T15:33:35Z</time>
      </trkpt>
      <trkpt lat="43.61232" lon="3.82948">
        <ele>57</ele>
        <time>2022-10-07T15:33:45Z</time>
      </trkpt>
      <trkpt lat="43.6121" lon="3.82959">
        <ele>57</ele>
        <time>2022-10-07T15:33:55Z</time>
      </trkpt>
      <trkpt lat="43.61193" lon="3.82957">
        <ele>57</ele>
        <time>2022-10-07T15:34:05Z</time>
      </trkpt>
      <trkpt lat="43.61183" lon="3.82905">
        <ele>56.8</ele>
        <time>2022-10-07T15:34:15Z</time>
      </trkpt>
    </trkseg>
  </trk>
</gpx>